<?xml version="1.0" encoding="UTF-8" standalone="no" ?>
<gpx xmlns="http://www.topografix.com/GPX/1/1" creator="MapSource 6.16.3" version="1.1" xmlns:xsi="http://www.w3.org/2001/XMLSchema-instance" xsi:schemaLocation="http://www.topografix.com/GPX/1/1 http://www.topografix.com/GPX/1/1/gpx.xsd">

  <metadata>
    <link href="http://www.garmin.com">
      <text>Garmin International</text>
    </link>
    <time>2016-09-06T14:51:17Z</time>
    <bounds maxlat="44.393455479294062" maxlon="11.284139240160584" minlat="44.371612071990967" minlon="11.24575138092041"/>
  </metadata>

  <wpt lat="44.381911838427186" lon="11.263185739517212">
    <ele>0</ele>
    <name>Mugna2</name>
    <cmt>X Sentieri</cmt>
    <desc>X Sentieri</desc>
    <sym>Waypoint</sym>
    <extensions>
      <gpxx:WaypointExtension xmlns:gpxx="http://www.garmin.com/xmlschemas/GpxExtensions/v3">
        <gpxx:DisplayMode>SymbolAndName</gpxx:DisplayMode>
      </gpxx:WaypointExtension>
    </extensions>
  </wpt>

  <wpt lat="44.37753438949585" lon="11.27047598361969">
    <ele>0</ele>
    <name>Mugna5</name>
    <cmt>Mugna5</cmt>
    <desc>Mugna5</desc>
    <sym>Waypoint</sym>
    <extensions>
      <gpxx:WaypointExtension xmlns:gpxx="http://www.garmin.com/xmlschemas/GpxExtensions/v3">
        <gpxx:DisplayMode>SymbolAndName</gpxx:DisplayMode>
      </gpxx:WaypointExtension>
    </extensions>
  </wpt>

  <trk>
    <name>ACTIVE LOG</name>
    <trkseg>
      <trkpt lat="44.393348693847656" lon="11.24650239944458">
        <ele>127</ele>
        <time>2004-05-09T06:39:33Z</time>
      </trkpt>
      <trkpt lat="44.393305778503418" lon="11.246588230133057">
        <ele>127</ele>
        <time>2004-05-09T06:39:39Z</time>
      </trkpt>
      <trkpt lat="44.39321986399591" lon="11.24675989151001">
        <ele>128</ele>
        <time>2004-05-09T06:39:48Z</time>
      </trkpt>
      <trkpt lat="44.392769336700439" lon="11.246566772460937">
        <ele>127</ele>
        <time>2004-05-09T06:40:06Z</time>
      </trkpt>
      <trkpt lat="44.392104065045714" lon="11.246223365888">
        <ele>128</ele>
        <time>2004-05-09T06:40:29Z</time>
      </trkpt>
      <trkpt lat="44.391353130340576" lon="11.245880126953125">
        <ele>128</ele>
        <time>2004-05-09T06:40:51Z</time>
      </trkpt>
      <trkpt lat="44.390859603881836" lon="11.24575138092041">
        <ele>128</ele>
        <time>2004-05-09T06:41:04Z</time>
      </trkpt>
      <trkpt lat="44.390816688537598" lon="11.245772838592529">
        <ele>128</ele>
        <time>2004-05-09T06:41:05Z</time>
      </trkpt>
      <trkpt lat="44.390687858685851" lon="11.245922958478332">
        <ele>127</ele>
        <time>2004-05-09T06:41:09Z</time>
      </trkpt>
      <trkpt lat="44.390537738800049" lon="11.246094703674316">
        <ele>127</ele>
        <time>2004-05-09T06:41:13Z</time>
      </trkpt>
      <trkpt lat="44.390473365783691" lon="11.246180534362793">
        <ele>127</ele>
        <time>2004-05-09T06:41:16Z</time>
      </trkpt>
      <trkpt lat="44.389293193817139" lon="11.24675989151001">
        <ele>126</ele>
        <time>2004-05-09T06:41:42Z</time>
      </trkpt>
      <trkpt lat="44.388606464490294" lon="11.247081840410829">
        <ele>126</ele>
        <time>2004-05-09T06:41:59Z</time>
      </trkpt>
      <trkpt lat="44.388413429260254" lon="11.247167587280273">
        <ele>127</ele>
        <time>2004-05-09T06:42:04Z</time>
      </trkpt>
      <trkpt lat="44.388284683227539" lon="11.247231960296631">
        <ele>127</ele>
        <time>2004-05-09T06:42:08Z</time>
      </trkpt>
      <trkpt lat="44.388113021850586" lon="11.247296333312988">
        <ele>127</ele>
        <time>2004-05-09T06:42:12Z</time>
      </trkpt>
      <trkpt lat="44.387748241424561" lon="11.247446537017822">
        <ele>128</ele>
        <time>2004-05-09T06:42:23Z</time>
      </trkpt>
      <trkpt lat="44.38776969909668" lon="11.247725486755371">
        <ele>127</ele>
        <time>2004-05-09T06:42:28Z</time>
      </trkpt>
      <trkpt lat="44.387726783752441" lon="11.24804743565619">
        <ele>130</ele>
        <time>2004-05-09T06:42:38Z</time>
      </trkpt>
      <trkpt lat="44.387705326080322" lon="11.248090267181396">
        <ele>130</ele>
        <time>2004-05-09T06:42:40Z</time>
      </trkpt>
      <trkpt lat="44.387598037719727" lon="11.248133182525635">
        <ele>131</ele>
        <time>2004-05-09T06:42:45Z</time>
      </trkpt>
      <trkpt lat="44.387555122375488" lon="11.248154640197754">
        <ele>132</ele>
        <time>2004-05-09T06:42:47Z</time>
      </trkpt>
      <trkpt lat="44.387533664703369" lon="11.248154640197754">
        <ele>132</ele>
        <time>2004-05-09T06:42:49Z</time>
      </trkpt>
      <trkpt lat="44.387125968933105" lon="11.248133182525635">
        <ele>134</ele>
        <time>2004-05-09T06:43:07Z</time>
      </trkpt>
      <trkpt lat="44.386997222900391" lon="11.248562335968018">
        <ele>137</ele>
        <time>2004-05-09T06:43:21Z</time>
      </trkpt>
      <trkpt lat="44.386868476867676" lon="11.249270439147949">
        <ele>135</ele>
        <time>2004-05-09T06:43:36Z</time>
      </trkpt>
      <trkpt lat="44.386975765228271" lon="11.249485015869141">
        <ele>135</ele>
        <time>2004-05-09T06:43:41Z</time>
      </trkpt>
      <trkpt lat="44.387447834014893" lon="11.250429237261415">
        <ele>134</ele>
        <time>2004-05-09T06:44:03Z</time>
      </trkpt>
      <trkpt lat="44.387705326080322" lon="11.251158714294434">
        <ele>134</ele>
        <time>2004-05-09T06:44:20Z</time>
      </trkpt>
      <trkpt lat="44.387834072113037" lon="11.251802360638976">
        <ele>138</ele>
        <time>2004-05-09T06:44:38Z</time>
      </trkpt>
      <trkpt lat="44.387919902801514" lon="11.252253139391541">
        <ele>141</ele>
        <time>2004-05-09T06:44:52Z</time>
      </trkpt>
      <trkpt lat="44.388070106506348" lon="11.252961158752441">
        <ele>144</ele>
        <time>2004-05-09T06:45:15Z</time>
      </trkpt>
      <trkpt lat="44.388198936358094" lon="11.253583431243896">
        <ele>145</ele>
        <time>2004-05-09T06:45:34Z</time>
      </trkpt>
      <trkpt lat="44.388134479522705" lon="11.254055500030518">
        <ele>145</ele>
        <time>2004-05-09T06:45:46Z</time>
      </trkpt>
      <trkpt lat="44.388091564178467" lon="11.253840923309326">
        <ele>145</ele>
        <time>2004-05-09T06:45:55Z</time>
      </trkpt>
      <trkpt lat="44.388048565015197" lon="11.253411769866943">
        <ele>149</ele>
        <time>2004-05-09T06:46:10Z</time>
      </trkpt>
      <trkpt lat="44.38800573348999" lon="11.253218734636903">
        <ele>151</ele>
        <time>2004-05-09T06:46:14Z</time>
      </trkpt>
      <trkpt lat="44.38776969909668" lon="11.252768039703369">
        <ele>154</ele>
        <time>2004-05-09T06:46:32Z</time>
      </trkpt>
      <trkpt lat="44.387533664703369" lon="11.252360260114074">
        <ele>157</ele>
        <time>2004-05-09T06:46:50Z</time>
      </trkpt>
      <trkpt lat="44.387447834014893" lon="11.252188682556152">
        <ele>158</ele>
        <time>2004-05-09T06:46:58Z</time>
      </trkpt>
      <trkpt lat="44.387362003326416" lon="11.252124309539795">
        <ele>159</ele>
        <time>2004-05-09T06:47:01Z</time>
      </trkpt>
      <trkpt lat="44.38725471496582" lon="11.252295970916748">
        <ele>160</ele>
        <time>2004-05-09T06:47:08Z</time>
      </trkpt>
      <trkpt lat="44.387276172637939" lon="11.252768039703369">
        <ele>161</ele>
        <time>2004-05-09T06:47:25Z</time>
      </trkpt>
      <trkpt lat="44.387276172637939" lon="11.253175735473633">
        <ele>164</ele>
        <time>2004-05-09T06:47:41Z</time>
      </trkpt>
      <trkpt lat="44.387168884277344" lon="11.253132820129395">
        <ele>164</ele>
        <time>2004-05-09T06:47:46Z</time>
      </trkpt>
      <trkpt lat="44.387040138244629" lon="11.252896785736084">
        <ele>166</ele>
        <time>2004-05-09T06:47:57Z</time>
      </trkpt>
      <trkpt lat="44.386932766065001" lon="11.252596378326416">
        <ele>170</ele>
        <time>2004-05-09T06:48:10Z</time>
      </trkpt>
      <trkpt lat="44.386932766065001" lon="11.252553462982178">
        <ele>170</ele>
        <time>2004-05-09T06:48:11Z</time>
      </trkpt>
      <trkpt lat="44.386804103851318" lon="11.252017021179199">
        <ele>172</ele>
        <time>2004-05-09T06:48:31Z</time>
      </trkpt>
      <trkpt lat="44.38676118850708" lon="11.251652240753174">
        <ele>176</ele>
        <time>2004-05-09T06:48:46Z</time>
      </trkpt>
      <trkpt lat="44.386653900146484" lon="11.251244461163878">
        <ele>179</ele>
        <time>2004-05-09T06:49:01Z</time>
      </trkpt>
      <trkpt lat="44.386375034227967" lon="11.250965595245361">
        <ele>182</ele>
        <time>2004-05-09T06:49:17Z</time>
      </trkpt>
      <trkpt lat="44.386332035064697" lon="11.250944137573242">
        <ele>183</ele>
        <time>2004-05-09T06:49:19Z</time>
      </trkpt>
      <trkpt lat="44.385859966278076" lon="11.250815391540527">
        <ele>185</ele>
        <time>2004-05-09T06:49:41Z</time>
      </trkpt>
      <trkpt lat="44.385731220245361" lon="11.250836765393615">
        <ele>187</ele>
        <time>2004-05-09T06:49:47Z</time>
      </trkpt>
      <trkpt lat="44.385623931884766" lon="11.251480579376221">
        <ele>189</ele>
        <time>2004-05-09T06:50:09Z</time>
      </trkpt>
      <trkpt lat="44.385666763409972" lon="11.252017021179199">
        <ele>191</ele>
        <time>2004-05-09T06:50:27Z</time>
      </trkpt>
      <trkpt lat="44.385709762573242" lon="11.252574920654297">
        <ele>194</ele>
        <time>2004-05-09T06:50:45Z</time>
      </trkpt>
      <trkpt lat="44.38581713475287" lon="11.25300407409668">
        <ele>198</ele>
        <time>2004-05-09T06:50:59Z</time>
      </trkpt>
      <trkpt lat="44.386203289031982" lon="11.253454685211182">
        <ele>200</ele>
        <time>2004-05-09T06:51:20Z</time>
      </trkpt>
      <trkpt lat="44.386289119720459" lon="11.254055500030518">
        <ele>202</ele>
        <time>2004-05-09T06:51:39Z</time>
      </trkpt>
      <trkpt lat="44.386074459180236" lon="11.254549026489258">
        <ele>204</ele>
        <time>2004-05-09T06:51:56Z</time>
      </trkpt>
      <trkpt lat="44.386117458343506" lon="11.25504263676703">
        <ele>208</ele>
        <time>2004-05-09T06:52:12Z</time>
      </trkpt>
      <trkpt lat="44.386310577392578" lon="11.255557537078857">
        <ele>210</ele>
        <time>2004-05-09T06:52:31Z</time>
      </trkpt>
      <trkpt lat="44.386246204376221" lon="11.256051063537598">
        <ele>212</ele>
        <time>2004-05-09T06:52:49Z</time>
      </trkpt>
      <trkpt lat="44.386074459180236" lon="11.256437301635742">
        <ele>215</ele>
        <time>2004-05-09T06:53:05Z</time>
      </trkpt>
      <trkpt lat="44.38581713475287" lon="11.256866538897157">
        <ele>218</ele>
        <time>2004-05-09T06:53:25Z</time>
      </trkpt>
      <trkpt lat="44.385666763409972" lon="11.257145404815674">
        <ele>222</ele>
        <time>2004-05-09T06:53:37Z</time>
      </trkpt>
      <trkpt lat="44.385495185852051" lon="11.257660388946533">
        <ele>225</ele>
        <time>2004-05-09T06:53:55Z</time>
      </trkpt>
      <trkpt lat="44.385173320770264" lon="11.258239662274718">
        <ele>226</ele>
        <time>2004-05-09T06:54:16Z</time>
      </trkpt>
      <trkpt lat="44.384872913360596" lon="11.258819103240967">
        <ele>227</ele>
        <time>2004-05-09T06:54:37Z</time>
      </trkpt>
      <trkpt lat="44.38450813293457" lon="11.25899076461792">
        <ele>230</ele>
        <time>2004-05-09T06:54:53Z</time>
      </trkpt>
      <trkpt lat="44.384529590606689" lon="11.259205341339111">
        <ele>229</ele>
        <time>2004-05-09T06:54:58Z</time>
      </trkpt>
      <trkpt lat="44.384679794311523" lon="11.259441375732422">
        <ele>230</ele>
        <time>2004-05-09T06:55:07Z</time>
      </trkpt>
      <trkpt lat="44.385001659393311" lon="11.259634494781494">
        <ele>232</ele>
        <time>2004-05-09T06:55:22Z</time>
      </trkpt>
      <trkpt lat="44.38502311706543" lon="11.259656036272645">
        <ele>232</ele>
        <time>2004-05-09T06:55:23Z</time>
      </trkpt>
      <trkpt lat="44.385151863098145" lon="11.260170936584473">
        <ele>235</ele>
        <time>2004-05-09T06:55:42Z</time>
      </trkpt>
      <trkpt lat="44.385473728179932" lon="11.260299682617188">
        <ele>238</ele>
        <time>2004-05-09T06:55:59Z</time>
      </trkpt>
      <trkpt lat="44.38601016998291" lon="11.260514259338379">
        <ele>239</ele>
        <time>2004-05-09T06:56:22Z</time>
      </trkpt>
      <trkpt lat="44.386160373687744" lon="11.26072883605957">
        <ele>239</ele>
        <time>2004-05-09T06:56:31Z</time>
      </trkpt>
      <trkpt lat="44.386332035064697" lon="11.260964870452881">
        <ele>239</ele>
        <time>2004-05-09T06:56:38Z</time>
      </trkpt>
      <trkpt lat="44.386203289031982" lon="11.261479938402772">
        <ele>240</ele>
        <time>2004-05-09T06:56:54Z</time>
      </trkpt>
      <trkpt lat="44.38575267791748" lon="11.261801719665527">
        <ele>241</ele>
        <time>2004-05-09T06:57:10Z</time>
      </trkpt>
      <trkpt lat="44.385430812835693" lon="11.2619948387146">
        <ele>252</ele>
        <time>2004-05-09T09:18:11Z</time>
      </trkpt>
      <trkpt lat="44.385280609130859" lon="11.262059211730957">
        <ele>257</ele>
        <time>2004-05-09T09:18:06Z</time>
      </trkpt>
      <trkpt lat="44.385127974674106" lon="11.262235566973686">
        <ele>242</ele>
        <time>1989-12-31T00:00:00Z</time>
      </trkpt>
      <trkpt lat="44.385001659393311" lon="11.262236572802067">
        <ele>242</ele>
        <time>2004-05-09T06:59:55Z</time>
      </trkpt>
      <trkpt lat="44.385066032409668" lon="11.261893333867192">
        <ele>245</ele>
        <time>2004-05-09T07:00:15Z</time>
      </trkpt>
      <trkpt lat="44.385216236114502" lon="11.261635841801763">
        <ele>247</ele>
        <time>2004-05-09T07:00:33Z</time>
      </trkpt>
      <trkpt lat="44.385302066802979" lon="11.261592926457524">
        <ele>250</ele>
        <time>2004-05-09T07:00:39Z</time>
      </trkpt>
      <trkpt lat="44.385387897491455" lon="11.261485638096929">
        <ele>251</ele>
        <time>2004-05-09T07:00:55Z</time>
      </trkpt>
      <trkpt lat="44.385344982147217" lon="11.261464096605778">
        <ele>253</ele>
        <time>2004-05-09T07:01:10Z</time>
      </trkpt>
      <trkpt lat="44.385280609130859" lon="11.26144272275269">
        <ele>254</ele>
        <time>2004-05-09T07:01:27Z</time>
      </trkpt>
      <trkpt lat="44.385259235277772" lon="11.26144272275269">
        <ele>255</ele>
        <time>2004-05-09T07:01:35Z</time>
      </trkpt>
      <trkpt lat="44.385216236114502" lon="11.261421181261539">
        <ele>257</ele>
        <time>2004-05-09T07:01:38Z</time>
      </trkpt>
      <trkpt lat="44.385173320770264" lon="11.261421181261539">
        <ele>257</ele>
        <time>2004-05-09T07:01:41Z</time>
      </trkpt>
      <trkpt lat="44.385001659393311" lon="11.261421181261539">
        <ele>260</ele>
        <time>2004-05-09T07:01:55Z</time>
      </trkpt>
      <trkpt lat="44.384915828704834" lon="11.261228062212467">
        <ele>263</ele>
        <time>2004-05-09T07:02:08Z</time>
      </trkpt>
      <trkpt lat="44.384872913360596" lon="11.261142231523991">
        <ele>264</ele>
        <time>2004-05-09T07:02:13Z</time>
      </trkpt>
      <trkpt lat="44.384679794311523" lon="11.260970570147038">
        <ele>267</ele>
        <time>2004-05-09T07:02:31Z</time>
      </trkpt>
      <trkpt lat="44.384615421295166" lon="11.260798908770084">
        <ele>271</ele>
        <time>2004-05-09T07:02:41Z</time>
      </trkpt>
      <trkpt lat="44.384550964459777" lon="11.260434128344059">
        <ele>274</ele>
        <time>2004-05-09T07:02:54Z</time>
      </trkpt>
      <trkpt lat="44.384529590606689" lon="11.260391212999821">
        <ele>275</ele>
        <time>2004-05-09T07:02:56Z</time>
      </trkpt>
      <trkpt lat="44.384422302246094" lon="11.260283924639225">
        <ele>276</ele>
        <time>2004-05-09T07:03:05Z</time>
      </trkpt>
      <trkpt lat="44.384164810180664" lon="11.260198093950748">
        <ele>280</ele>
        <time>2004-05-09T07:03:24Z</time>
      </trkpt>
      <trkpt lat="44.384143436327577" lon="11.260176720097661">
        <ele>280</ele>
        <time>2004-05-09T07:03:26Z</time>
      </trkpt>
      <trkpt lat="44.383885860443115" lon="11.260090805590153">
        <ele>281</ele>
        <time>2004-05-09T07:03:46Z</time>
      </trkpt>
      <trkpt lat="44.383692741394043" lon="11.259854771196842">
        <ele>284</ele>
        <time>2004-05-09T07:04:08Z</time>
      </trkpt>
      <trkpt lat="44.383563995361328" lon="11.259640194475651">
        <ele>287</ele>
        <time>2004-05-09T07:04:25Z</time>
      </trkpt>
      <trkpt lat="44.383413791656494" lon="11.259425617754459">
        <ele>290</ele>
        <time>2004-05-09T07:04:42Z</time>
      </trkpt>
      <trkpt lat="44.383177841082215" lon="11.259318329393864">
        <ele>293</ele>
        <time>2004-05-09T07:05:02Z</time>
      </trkpt>
      <trkpt lat="44.38300609588623" lon="11.259296871721745">
        <ele>296</ele>
        <time>2004-05-09T07:05:20Z</time>
      </trkpt>
      <trkpt lat="44.382941722869873" lon="11.259232498705387">
        <ele>297</ele>
        <time>2004-05-09T07:05:31Z</time>
      </trkpt>
      <trkpt lat="44.382963180541992" lon="11.259017921984196">
        <ele>300</ele>
        <time>2004-05-09T07:05:46Z</time>
      </trkpt>
      <trkpt lat="44.383070468902588" lon="11.258867718279362">
        <ele>303</ele>
        <time>2004-05-09T07:05:59Z</time>
      </trkpt>
      <trkpt lat="44.383156299591064" lon="11.258610226213932">
        <ele>305</ele>
        <time>2004-05-09T07:06:18Z</time>
      </trkpt>
      <trkpt lat="44.383177841082215" lon="11.258309818804264">
        <ele>308</ele>
        <time>2004-05-09T07:06:33Z</time>
      </trkpt>
      <trkpt lat="44.383156299591064" lon="11.258073784410954">
        <ele>310</ele>
        <time>2004-05-09T07:06:43Z</time>
      </trkpt>
      <trkpt lat="44.383220672607422" lon="11.257601715624332">
        <ele>313</ele>
        <time>2004-05-09T07:07:05Z</time>
      </trkpt>
      <trkpt lat="44.383284961804748" lon="11.257237019017339">
        <ele>316</ele>
        <time>2004-05-09T07:07:24Z</time>
      </trkpt>
      <trkpt lat="44.38326358795166" lon="11.256936527788639">
        <ele>316</ele>
        <time>2004-05-09T09:15:59Z</time>
      </trkpt>
      <trkpt lat="44.383199214935303" lon="11.256786324083805">
        <ele>317</ele>
        <time>2004-05-09T09:15:56Z</time>
      </trkpt>
      <trkpt lat="44.382963180541992" lon="11.25673770904541">
        <ele>322</ele>
        <time>2004-05-09T07:08:15Z</time>
      </trkpt>
      <trkpt lat="44.382920265197754" lon="11.256780624389648">
        <ele>324</ele>
        <time>2004-05-09T07:08:51Z</time>
      </trkpt>
      <trkpt lat="44.382855892181396" lon="11.257059574127197">
        <ele>326</ele>
        <time>2004-05-09T07:09:01Z</time>
      </trkpt>
      <trkpt lat="44.382898807525635" lon="11.257424438372254">
        <ele>328</ele>
        <time>2004-05-09T07:09:16Z</time>
      </trkpt>
      <trkpt lat="44.382812976837158" lon="11.257681762799621">
        <ele>329</ele>
        <time>2004-05-09T07:09:32Z</time>
      </trkpt>
      <trkpt lat="44.382705688476563" lon="11.257896423339844">
        <ele>333</ele>
        <time>2004-05-09T07:09:45Z</time>
      </trkpt>
      <trkpt lat="44.382662773132324" lon="11.258046627044678">
        <ele>334</ele>
        <time>2004-05-09T07:09:59Z</time>
      </trkpt>
      <trkpt lat="44.382619941607118" lon="11.258068084716797">
        <ele>334</ele>
        <time>2004-05-09T07:10:16Z</time>
      </trkpt>
      <trkpt lat="44.382555484771729" lon="11.258218288421631">
        <ele>334</ele>
        <time>2004-05-09T07:10:28Z</time>
      </trkpt>
      <trkpt lat="44.382555484771729" lon="11.258239662274718">
        <ele>335</ele>
        <time>2004-05-09T07:10:31Z</time>
      </trkpt>
      <trkpt lat="44.382383823394775" lon="11.258432865142822">
        <ele>338</ele>
        <time>2004-05-09T07:10:45Z</time>
      </trkpt>
      <trkpt lat="44.382126331329346" lon="11.258840560913086">
        <ele>338</ele>
        <time>2004-05-09T07:11:04Z</time>
      </trkpt>
      <trkpt lat="44.382126331329346" lon="11.259377002716064">
        <ele>334</ele>
        <time>2004-05-09T07:11:15Z</time>
      </trkpt>
      <trkpt lat="44.382126331329346" lon="11.260213935747743">
        <ele>338</ele>
        <time>2004-05-09T07:11:33Z</time>
      </trkpt>
      <trkpt lat="44.382147789001465" lon="11.260278224945068">
        <ele>339</ele>
        <time>2004-05-09T07:11:35Z</time>
      </trkpt>
      <trkpt lat="44.382362365722656" lon="11.260471260175109">
        <ele>341</ele>
        <time>2004-05-09T07:11:44Z</time>
      </trkpt>
      <trkpt lat="44.382641315460205" lon="11.260685920715332">
        <ele>344</ele>
        <time>2004-05-09T07:11:56Z</time>
      </trkpt>
      <trkpt lat="44.382748603820801" lon="11.261007785797119">
        <ele>347</ele>
        <time>2004-05-09T07:12:13Z</time>
      </trkpt>
      <trkpt lat="44.382791519165039" lon="11.261157989501953">
        <ele>351</ele>
        <time>2004-05-09T07:12:20Z</time>
      </trkpt>
      <trkpt lat="44.382834434509277" lon="11.261200904846191">
        <ele>352</ele>
        <time>2004-05-09T07:12:31Z</time>
      </trkpt>
      <trkpt lat="44.382834434509277" lon="11.26124382019043">
        <ele>354</ele>
        <time>2004-05-09T07:12:37Z</time>
      </trkpt>
      <trkpt lat="44.382855892181396" lon="11.261351108551025">
        <ele>355</ele>
        <time>2004-05-09T07:12:51Z</time>
      </trkpt>
      <trkpt lat="44.382877266034484" lon="11.261479938402772">
        <ele>357</ele>
        <time>2004-05-09T07:13:07Z</time>
      </trkpt>
      <trkpt lat="44.382855892181396" lon="11.261522769927979">
        <ele>359</ele>
        <time>2004-05-09T07:13:22Z</time>
      </trkpt>
      <trkpt lat="44.382834434509277" lon="11.261544227600098">
        <ele>359</ele>
        <time>2004-05-09T07:13:30Z</time>
      </trkpt>
      <trkpt lat="44.382748603820801" lon="11.261715888977051">
        <ele>363</ele>
        <time>2004-05-09T07:13:45Z</time>
      </trkpt>
      <trkpt lat="44.382619941607118" lon="11.261823177337646">
        <ele>365</ele>
        <time>2004-05-09T07:13:57Z</time>
      </trkpt>
      <trkpt lat="44.382362365722656" lon="11.262016296386719">
        <ele>367</ele>
        <time>2004-05-09T07:14:20Z</time>
      </trkpt>
      <trkpt lat="44.38231953419745" lon="11.262102127075195">
        <ele>369</ele>
        <time>2004-05-09T07:14:26Z</time>
      </trkpt>
      <trkpt lat="44.382297992706299" lon="11.26223087310791">
        <ele>370</ele>
        <time>2004-05-09T07:14:45Z</time>
      </trkpt>
      <trkpt lat="44.382233619689941" lon="11.26248836517334">
        <ele>372</ele>
        <time>2004-05-09T07:15:12Z</time>
      </trkpt>
      <trkpt lat="44.382212162017822" lon="11.262531280517578">
        <ele>371</ele>
        <time>2004-05-09T07:15:23Z</time>
      </trkpt>
      <trkpt lat="44.382147789001465" lon="11.262660026550293">
        <ele>373</ele>
        <time>2004-05-09T07:15:39Z</time>
      </trkpt>
      <trkpt lat="44.382040500640869" lon="11.262810230255127">
        <ele>375</ele>
        <time>2004-05-09T07:15:59Z</time>
      </trkpt>
      <trkpt lat="44.381976127624512" lon="11.262831687927246">
        <ele>376</ele>
        <time>2004-05-09T07:16:21Z</time>
      </trkpt>
      <trkpt lat="44.381890296936035" lon="11.262938976287842">
        <ele>378</ele>
        <time>2004-05-09T07:16:38Z</time>
      </trkpt>
      <trkpt lat="44.381804466247559" lon="11.262896060943604">
        <ele>377</ele>
        <time>2004-05-09T07:17:15Z</time>
      </trkpt>
      <trkpt lat="44.381783008575439" lon="11.263024806976318">
        <ele>379</ele>
        <time>2004-05-09T07:17:59Z</time>
      </trkpt>
      <trkpt lat="44.381783008575439" lon="11.263067722320557">
        <ele>380</ele>
        <time>2004-05-09T07:18:09Z</time>
      </trkpt>
      <trkpt lat="44.381783008575439" lon="11.263346672058105">
        <ele>382</ele>
        <time>2004-05-09T07:18:23Z</time>
      </trkpt>
      <trkpt lat="44.381718635559082" lon="11.263539791107178">
        <ele>384</ele>
        <time>2004-05-09T07:18:37Z</time>
      </trkpt>
      <trkpt lat="44.381697177886963" lon="11.263604164123535">
        <ele>386</ele>
        <time>2004-05-09T07:18:55Z</time>
      </trkpt>
      <trkpt lat="44.381654262542725" lon="11.263625621795654">
        <ele>386</ele>
        <time>2004-05-09T07:19:02Z</time>
      </trkpt>
      <trkpt lat="44.38152551651001" lon="11.263711536303163">
        <ele>389</ele>
        <time>2004-05-09T07:19:17Z</time>
      </trkpt>
      <trkpt lat="44.381418228149414" lon="11.263711536303163">
        <ele>393</ele>
        <time>2004-05-09T07:19:28Z</time>
      </trkpt>
      <trkpt lat="44.381375312805176" lon="11.263711536303163">
        <ele>393</ele>
        <time>2004-05-09T07:19:39Z</time>
      </trkpt>
      <trkpt lat="44.381353938952088" lon="11.263711536303163">
        <ele>393</ele>
        <time>2004-05-09T07:19:48Z</time>
      </trkpt>
      <trkpt lat="44.381246566772461" lon="11.263625621795654">
        <ele>395</ele>
        <time>2004-05-09T07:19:58Z</time>
      </trkpt>
      <trkpt lat="44.381117820739746" lon="11.26347541809082">
        <ele>399</ele>
        <time>2004-05-09T07:20:09Z</time>
      </trkpt>
      <trkpt lat="44.380924701690674" lon="11.263325214385986">
        <ele>400</ele>
        <time>2004-05-09T07:20:28Z</time>
      </trkpt>
      <trkpt lat="44.380602836608887" lon="11.263132095336914">
        <ele>403</ele>
        <time>2004-05-09T07:20:45Z</time>
      </trkpt>
      <trkpt lat="44.3802809715271" lon="11.26272439956665">
        <ele>406</ele>
        <time>2004-05-09T07:21:06Z</time>
      </trkpt>
      <trkpt lat="44.379894733428955" lon="11.262617111206055">
        <ele>406</ele>
        <time>2004-05-09T07:21:26Z</time>
      </trkpt>
      <trkpt lat="44.379358291625977" lon="11.262938976287842">
        <ele>405</ele>
        <time>2004-05-09T07:21:48Z</time>
      </trkpt>
      <trkpt lat="44.37922946177423" lon="11.263089179992676">
        <ele>402</ele>
        <time>2004-05-09T07:21:52Z</time>
      </trkpt>
      <trkpt lat="44.3785644415766" lon="11.263561164960265">
        <ele>401</ele>
        <time>2004-05-09T07:22:08Z</time>
      </trkpt>
      <trkpt lat="44.37802791595459" lon="11.263861740007997">
        <ele>398</ele>
        <time>2004-05-09T07:22:26Z</time>
      </trkpt>
      <trkpt lat="44.377920627593994" lon="11.263861740007997">
        <ele>397</ele>
        <time>2004-05-09T07:22:28Z</time>
      </trkpt>
      <trkpt lat="44.377684593200684" lon="11.264054775238037">
        <ele>396</ele>
        <time>2004-05-09T07:22:34Z</time>
      </trkpt>
      <trkpt lat="44.377427101135254" lon="11.264290809631348">
        <ele>399</ele>
        <time>2004-05-09T07:22:47Z</time>
      </trkpt>
      <trkpt lat="44.377319812774658" lon="11.264441013336182">
        <ele>402</ele>
        <time>2004-05-09T07:22:54Z</time>
      </trkpt>
      <trkpt lat="44.37727689743042" lon="11.264526760205626">
        <ele>401</ele>
        <time>2004-05-09T07:22:58Z</time>
      </trkpt>
      <trkpt lat="44.377233982086182" lon="11.264612674713135">
        <ele>398</ele>
        <time>2004-05-09T07:23:00Z</time>
      </trkpt>
      <trkpt lat="44.377212524414063" lon="11.264762878417969">
        <ele>398</ele>
        <time>2004-05-09T07:23:02Z</time>
      </trkpt>
      <trkpt lat="44.377191066741943" lon="11.264998912811279">
        <ele>398</ele>
        <time>2004-05-09T07:23:05Z</time>
      </trkpt>
      <trkpt lat="44.37727689743042" lon="11.265363693237305">
        <ele>401</ele>
        <time>2004-05-09T07:23:14Z</time>
      </trkpt>
      <trkpt lat="44.377319812774658" lon="11.265771389007568">
        <ele>398</ele>
        <time>2004-05-09T07:23:25Z</time>
      </trkpt>
      <trkpt lat="44.377448558807373" lon="11.266243541613221">
        <ele>395</ele>
        <time>2004-05-09T07:23:39Z</time>
      </trkpt>
      <trkpt lat="44.37777042388916" lon="11.266522407531738">
        <ele>396</ele>
        <time>2004-05-09T07:23:54Z</time>
      </trkpt>
      <trkpt lat="44.378178119659424" lon="11.266887187957764">
        <ele>397</ele>
        <time>2004-05-09T07:24:11Z</time>
      </trkpt>
      <trkpt lat="44.378457069396973" lon="11.267251968383789">
        <ele>395</ele>
        <time>2004-05-09T07:24:28Z</time>
      </trkpt>
      <trkpt lat="44.378521358594298" lon="11.267681121826172">
        <ele>395</ele>
        <time>2004-05-09T07:24:47Z</time>
      </trkpt>
      <trkpt lat="44.378736019134521" lon="11.268196105957031">
        <ele>397</ele>
        <time>2004-05-09T07:25:08Z</time>
      </trkpt>
      <trkpt lat="44.378886222839355" lon="11.268603801727295">
        <ele>396</ele>
        <time>2004-05-09T07:25:24Z</time>
      </trkpt>
      <trkpt lat="44.378907680511475" lon="11.26922607421875">
        <ele>399</ele>
        <time>2004-05-09T07:25:42Z</time>
      </trkpt>
      <trkpt lat="44.378757476806641" lon="11.269633769989014">
        <ele>398</ele>
        <time>2004-05-09T07:25:58Z</time>
      </trkpt>
      <trkpt lat="44.378414237871766" lon="11.26971960067749">
        <ele>399</ele>
        <time>2004-05-09T07:26:14Z</time>
      </trkpt>
      <trkpt lat="44.377985000610352" lon="11.269826889038086">
        <ele>399</ele>
        <time>2004-05-09T07:26:35Z</time>
      </trkpt>
      <trkpt lat="44.377663135528564" lon="11.270105838775635">
        <ele>400</ele>
        <time>2004-05-09T07:26:53Z</time>
      </trkpt>
      <trkpt lat="44.377470016479492" lon="11.270492076873779">
        <ele>401</ele>
        <time>2004-05-09T07:27:13Z</time>
      </trkpt>
      <trkpt lat="44.377319812774658" lon="11.270577907562256">
        <ele>402</ele>
        <time>2004-05-09T07:27:26Z</time>
      </trkpt>
      <trkpt lat="44.377083778381348" lon="11.270685195922852">
        <ele>405</ele>
        <time>2004-05-09T07:27:40Z</time>
      </trkpt>
      <trkpt lat="44.377083778381348" lon="11.270685195922852">
        <ele>405</ele>
        <time>2004-05-09T07:27:41Z</time>
      </trkpt>
      <trkpt lat="44.376847660169005" lon="11.27098560333252">
        <ele>408</ele>
        <time>2004-05-09T07:28:00Z</time>
      </trkpt>
      <trkpt lat="44.376611709594727" lon="11.271092891693115">
        <ele>411</ele>
        <time>2004-05-09T07:28:19Z</time>
      </trkpt>
      <trkpt lat="44.376568794250488" lon="11.271092891693115">
        <ele>412</ele>
        <time>2004-05-09T07:28:22Z</time>
      </trkpt>
      <trkpt lat="44.376354217529297" lon="11.271157264709473">
        <ele>415</ele>
        <time>2004-05-09T07:28:36Z</time>
      </trkpt>
      <trkpt lat="44.376289760693908" lon="11.27122163772583">
        <ele>415</ele>
        <time>2004-05-09T07:28:43Z</time>
      </trkpt>
      <trkpt lat="44.376225471496582" lon="11.271286010742188">
        <ele>416</ele>
        <time>2004-05-09T07:42:52Z</time>
      </trkpt>
      <trkpt lat="44.376354217529297" lon="11.27147912979126">
        <ele>416</ele>
        <time>2004-05-09T07:43:10Z</time>
      </trkpt>
      <trkpt lat="44.376482963562012" lon="11.271865367889404">
        <ele>414</ele>
        <time>2004-05-09T07:43:24Z</time>
      </trkpt>
      <trkpt lat="44.376482963562012" lon="11.272015571594238">
        <ele>413</ele>
        <time>2004-05-09T07:43:27Z</time>
      </trkpt>
      <trkpt lat="44.376482963562012" lon="11.272058486938477">
        <ele>412</ele>
        <time>2004-05-09T07:43:28Z</time>
      </trkpt>
      <trkpt lat="44.376439964398742" lon="11.272165775299072">
        <ele>411</ele>
        <time>2004-05-09T07:43:30Z</time>
      </trkpt>
      <trkpt lat="44.37626838684082" lon="11.272380435839295">
        <ele>406</ele>
        <time>2004-05-09T07:43:33Z</time>
      </trkpt>
      <trkpt lat="44.376182639971375" lon="11.272487640380859">
        <ele>405</ele>
        <time>2004-05-09T07:43:35Z</time>
      </trkpt>
      <trkpt lat="44.376118183135986" lon="11.272659301757812">
        <ele>403</ele>
        <time>2004-05-09T07:43:38Z</time>
      </trkpt>
      <trkpt lat="44.376139640808105" lon="11.27272367477417">
        <ele>404</ele>
        <time>2004-05-09T07:43:39Z</time>
      </trkpt>
      <trkpt lat="44.376204013824463" lon="11.272938335314393">
        <ele>402</ele>
        <time>2004-05-09T07:43:42Z</time>
      </trkpt>
      <trkpt lat="44.376225471496582" lon="11.273002624511719">
        <ele>401</ele>
        <time>2004-05-09T07:43:43Z</time>
      </trkpt>
      <trkpt lat="44.376354217529297" lon="11.273388862609863">
        <ele>397</ele>
        <time>2004-05-09T07:43:48Z</time>
      </trkpt>
      <trkpt lat="44.376289760693908" lon="11.273753559216857">
        <ele>394</ele>
        <time>2004-05-09T07:43:53Z</time>
      </trkpt>
      <trkpt lat="44.376118183135986" lon="11.274011135101318">
        <ele>391</ele>
        <time>2004-05-09T07:43:58Z</time>
      </trkpt>
      <trkpt lat="44.376010894775391" lon="11.274204337969422">
        <ele>388</ele>
        <time>2004-05-09T07:44:02Z</time>
      </trkpt>
      <trkpt lat="44.376010894775391" lon="11.274354541674256">
        <ele>386</ele>
        <time>2004-05-09T07:44:07Z</time>
      </trkpt>
      <trkpt lat="44.376161098480225" lon="11.274654865264893">
        <ele>385</ele>
        <time>2004-05-09T07:44:19Z</time>
      </trkpt>
      <trkpt lat="44.376246929168701" lon="11.274998188018799">
        <ele>384</ele>
        <time>2004-05-09T07:44:36Z</time>
      </trkpt>
      <trkpt lat="44.376246929168701" lon="11.275191307067871">
        <ele>386</ele>
        <time>2004-05-09T07:44:59Z</time>
      </trkpt>
      <trkpt lat="44.376225471496582" lon="11.275298595428467">
        <ele>385</ele>
        <time>2004-05-09T07:45:25Z</time>
      </trkpt>
      <trkpt lat="44.37626838684082" lon="11.275641918182373">
        <ele>382</ele>
        <time>2004-05-09T07:45:47Z</time>
      </trkpt>
      <trkpt lat="44.376311302185059" lon="11.275813579559326">
        <ele>382</ele>
        <time>2004-05-09T07:46:09Z</time>
      </trkpt>
      <trkpt lat="44.376311302185059" lon="11.275856494903564">
        <ele>383</ele>
        <time>2004-05-09T07:46:12Z</time>
      </trkpt>
      <trkpt lat="44.376354217529297" lon="11.275985240936279">
        <ele>382</ele>
        <time>2004-05-09T07:46:22Z</time>
      </trkpt>
      <trkpt lat="44.376375675201416" lon="11.276135360822082">
        <ele>382</ele>
        <time>2004-05-09T07:46:38Z</time>
      </trkpt>
      <trkpt lat="44.376418590545654" lon="11.2764573097229">
        <ele>384</ele>
        <time>2004-05-09T07:46:55Z</time>
      </trkpt>
      <trkpt lat="44.376482963562012" lon="11.276650428771973">
        <ele>384</ele>
        <time>2004-05-09T07:47:08Z</time>
      </trkpt>
      <trkpt lat="44.376461505889893" lon="11.276779174804688">
        <ele>385</ele>
        <time>2004-05-09T07:47:31Z</time>
      </trkpt>
      <trkpt lat="44.376461505889893" lon="11.276886463165283">
        <ele>387</ele>
        <time>2004-05-09T07:47:46Z</time>
      </trkpt>
      <trkpt lat="44.376482963562012" lon="11.276993835344911">
        <ele>388</ele>
        <time>2004-05-09T07:48:06Z</time>
      </trkpt>
      <trkpt lat="44.376482963562012" lon="11.277122497558594">
        <ele>390</ele>
        <time>2004-05-09T07:48:20Z</time>
      </trkpt>
      <trkpt lat="44.376482963562012" lon="11.277229785919189">
        <ele>391</ele>
        <time>2004-05-09T07:48:31Z</time>
      </trkpt>
      <trkpt lat="44.376482963562012" lon="11.2774658203125">
        <ele>393</ele>
        <time>2004-05-09T07:48:52Z</time>
      </trkpt>
      <trkpt lat="44.376482963562012" lon="11.277508735656738">
        <ele>393</ele>
        <time>2004-05-09T07:49:14Z</time>
      </trkpt>
      <trkpt lat="44.376439964398742" lon="11.277573108673096">
        <ele>393</ele>
        <time>2004-05-09T07:50:58Z</time>
      </trkpt>
      <trkpt lat="44.376654624938965" lon="11.278045177459717">
        <ele>390</ele>
        <time>2004-05-09T07:51:15Z</time>
      </trkpt>
      <trkpt lat="44.376718997955322" lon="11.278410041704774">
        <ele>388</ele>
        <time>2004-05-09T07:51:25Z</time>
      </trkpt>
      <trkpt lat="44.37652587890625" lon="11.278946399688721">
        <ele>388</ele>
        <time>2004-05-09T07:51:40Z</time>
      </trkpt>
      <trkpt lat="44.376375675201416" lon="11.279075061902404">
        <ele>388</ele>
        <time>2004-05-09T07:51:50Z</time>
      </trkpt>
      <trkpt lat="44.375925064086914" lon="11.279397010803223">
        <ele>385</ele>
        <time>2004-05-09T07:52:04Z</time>
      </trkpt>
      <trkpt lat="44.375882064923644" lon="11.279654502868652">
        <ele>382</ele>
        <time>2004-05-09T07:52:09Z</time>
      </trkpt>
      <trkpt lat="44.375946521759033" lon="11.280083740130067">
        <ele>380</ele>
        <time>2004-05-09T07:52:14Z</time>
      </trkpt>
      <trkpt lat="44.376010894775391" lon="11.280448436737061">
        <ele>381</ele>
        <time>2004-05-09T07:52:18Z</time>
      </trkpt>
      <trkpt lat="44.376010894775391" lon="11.28096342086792">
        <ele>380</ele>
        <time>2004-05-09T07:52:26Z</time>
      </trkpt>
      <trkpt lat="44.375882064923644" lon="11.28122091293335">
        <ele>378</ele>
        <time>2004-05-09T07:54:58Z</time>
      </trkpt>
      <trkpt lat="44.375860691070557" lon="11.281242370605469">
        <ele>379</ele>
        <time>2004-05-09T07:54:59Z</time>
      </trkpt>
      <trkpt lat="44.375860691070557" lon="11.281285285949707">
        <ele>379</ele>
        <time>2004-05-09T07:55:02Z</time>
      </trkpt>
      <trkpt lat="44.375860691070557" lon="11.281306659802794">
        <ele>379</ele>
        <time>2004-05-09T07:55:19Z</time>
      </trkpt>
      <trkpt lat="44.375839233398438" lon="11.281306659802794">
        <ele>379</ele>
        <time>2004-05-09T07:55:38Z</time>
      </trkpt>
      <trkpt lat="44.375817775726318" lon="11.281435489654541">
        <ele>376</ele>
        <time>2004-05-09T07:55:47Z</time>
      </trkpt>
      <trkpt lat="44.375882064923644" lon="11.281542778015137">
        <ele>372</ele>
        <time>2004-05-09T07:55:52Z</time>
      </trkpt>
      <trkpt lat="44.375946521759033" lon="11.281671524047852">
        <ele>368</ele>
        <time>2004-05-09T07:55:56Z</time>
      </trkpt>
      <trkpt lat="44.375989437103271" lon="11.281778812408447">
        <ele>365</ele>
        <time>2004-05-09T07:55:59Z</time>
      </trkpt>
      <trkpt lat="44.376075267791748" lon="11.281886100769043">
        <ele>362</ele>
        <time>2004-05-09T07:56:04Z</time>
      </trkpt>
      <trkpt lat="44.376096725463867" lon="11.281929016113281">
        <ele>360</ele>
        <time>2004-05-09T07:56:07Z</time>
      </trkpt>
      <trkpt lat="44.376075267791748" lon="11.2819504737854">
        <ele>356</ele>
        <time>2004-05-09T07:56:16Z</time>
      </trkpt>
      <trkpt lat="44.376118183135986" lon="11.282036304473877">
        <ele>356</ele>
        <time>2004-05-09T07:56:28Z</time>
      </trkpt>
      <trkpt lat="44.376139640808105" lon="11.282057762145996">
        <ele>355</ele>
        <time>2004-05-09T07:56:30Z</time>
      </trkpt>
      <trkpt lat="44.376204013824463" lon="11.282143592834473">
        <ele>351</ele>
        <time>2004-05-09T07:56:36Z</time>
      </trkpt>
      <trkpt lat="44.37626838684082" lon="11.282186508178711">
        <ele>351</ele>
        <time>2004-05-09T07:58:04Z</time>
      </trkpt>
      <trkpt lat="44.376375675201416" lon="11.282358169555664">
        <ele>348</ele>
        <time>2004-05-09T07:58:15Z</time>
      </trkpt>
      <trkpt lat="44.376375675201416" lon="11.282336711883545">
        <ele>347</ele>
        <time>2004-05-09T07:58:17Z</time>
      </trkpt>
      <trkpt lat="44.376439964398742" lon="11.282465541735291">
        <ele>347</ele>
        <time>2004-05-09T07:58:29Z</time>
      </trkpt>
      <trkpt lat="44.376504421234131" lon="11.282508373260498">
        <ele>345</ele>
        <time>2004-05-09T07:58:33Z</time>
      </trkpt>
      <trkpt lat="44.376718997955322" lon="11.282765865325928">
        <ele>341</ele>
        <time>2004-05-09T08:00:58Z</time>
      </trkpt>
      <trkpt lat="44.37678337097168" lon="11.282830238342285">
        <ele>338</ele>
        <time>2004-05-09T08:01:02Z</time>
      </trkpt>
      <trkpt lat="44.376869201660156" lon="11.282830238342285">
        <ele>336</ele>
        <time>2004-05-09T08:01:06Z</time>
      </trkpt>
      <trkpt lat="44.376976490020752" lon="11.282873237505555">
        <ele>333</ele>
        <time>2004-05-09T08:01:12Z</time>
      </trkpt>
      <trkpt lat="44.37701940536499" lon="11.282894611358643">
        <ele>332</ele>
        <time>2004-05-09T08:01:14Z</time>
      </trkpt>
      <trkpt lat="44.377062320709229" lon="11.282937526702881">
        <ele>330</ele>
        <time>2004-05-09T08:01:24Z</time>
      </trkpt>
      <trkpt lat="44.377083778381348" lon="11.282958984375">
        <ele>328</ele>
        <time>2004-05-09T08:01:32Z</time>
      </trkpt>
      <trkpt lat="44.377126693725586" lon="11.283044815063477">
        <ele>328</ele>
        <time>2004-05-09T08:01:44Z</time>
      </trkpt>
      <trkpt lat="44.377233982086182" lon="11.283152103424072">
        <ele>324</ele>
        <time>2004-05-09T08:01:52Z</time>
      </trkpt>
      <trkpt lat="44.377405559644103" lon="11.283259391784668">
        <ele>320</ele>
        <time>2004-05-09T08:02:02Z</time>
      </trkpt>
      <trkpt lat="44.377427101135254" lon="11.283280765637755">
        <ele>319</ele>
        <time>2004-05-09T08:02:05Z</time>
      </trkpt>
      <trkpt lat="44.377448558807373" lon="11.283302307128906">
        <ele>319</ele>
        <time>2004-05-09T08:02:22Z</time>
      </trkpt>
      <trkpt lat="44.377470016479492" lon="11.283323764801025">
        <ele>320</ele>
        <time>2004-05-09T08:02:34Z</time>
      </trkpt>
      <trkpt lat="44.37753438949585" lon="11.283409595489502">
        <ele>319</ele>
        <time>2004-05-09T08:02:51Z</time>
      </trkpt>
      <trkpt lat="44.37753438949585" lon="11.283409595489502">
        <ele>320</ele>
        <time>2004-05-09T08:02:52Z</time>
      </trkpt>
      <trkpt lat="44.377598762512207" lon="11.283516883850098">
        <ele>320</ele>
        <time>2004-05-09T08:03:12Z</time>
      </trkpt>
      <trkpt lat="44.377620220184326" lon="11.283516883850098">
        <ele>321</ele>
        <time>2004-05-09T08:03:19Z</time>
      </trkpt>
      <trkpt lat="44.377727508544922" lon="11.283581340685487">
        <ele>322</ele>
        <time>2004-05-09T08:03:33Z</time>
      </trkpt>
      <trkpt lat="44.37777042388916" lon="11.283602714538574">
        <ele>322</ele>
        <time>2004-05-09T08:03:48Z</time>
      </trkpt>
      <trkpt lat="44.37777042388916" lon="11.283645629882813">
        <ele>321</ele>
        <time>2004-05-09T08:04:04Z</time>
      </trkpt>
      <trkpt lat="44.377748966217041" lon="11.283688461408019">
        <ele>319</ele>
        <time>2004-05-09T08:04:21Z</time>
      </trkpt>
      <trkpt lat="44.377727508544922" lon="11.283731460571289">
        <ele>317</ele>
        <time>2004-05-09T08:04:37Z</time>
      </trkpt>
      <trkpt lat="44.377684593200684" lon="11.283731460571289">
        <ele>314</ele>
        <time>2004-05-09T08:04:49Z</time>
      </trkpt>
      <trkpt lat="44.377684593200684" lon="11.283817291259766">
        <ele>313</ele>
        <time>2004-05-09T08:05:05Z</time>
      </trkpt>
      <trkpt lat="44.377727508544922" lon="11.283881664276123">
        <ele>309</ele>
        <time>2004-05-09T08:05:20Z</time>
      </trkpt>
      <trkpt lat="44.377727508544922" lon="11.283924579620361">
        <ele>307</ele>
        <time>2004-05-09T08:05:26Z</time>
      </trkpt>
      <trkpt lat="44.377684593200684" lon="11.284010410308838">
        <ele>305</ele>
        <time>2004-05-09T08:05:44Z</time>
      </trkpt>
      <trkpt lat="44.377663135528564" lon="11.284031867980957">
        <ele>303</ele>
        <time>2004-05-09T08:05:55Z</time>
      </trkpt>
      <trkpt lat="44.377641677856445" lon="11.284031867980957">
        <ele>299</ele>
        <time>2004-05-09T08:06:09Z</time>
      </trkpt>
      <trkpt lat="44.377620220184326" lon="11.284096240997314">
        <ele>299</ele>
        <time>2004-05-09T08:06:24Z</time>
      </trkpt>
      <trkpt lat="44.377620220184326" lon="11.284096240997314">
        <ele>299</ele>
        <time>2004-05-09T08:06:25Z</time>
      </trkpt>
      <trkpt lat="44.377641677856445" lon="11.284074783325195">
        <ele>300</ele>
        <time>2004-05-09T08:06:36Z</time>
      </trkpt>
      <trkpt lat="44.377641677856445" lon="11.284096240997314">
        <ele>298</ele>
        <time>2004-05-09T08:07:18Z</time>
      </trkpt>
      <trkpt lat="44.377620220184326" lon="11.284139240160584">
        <ele>298</ele>
        <time>2004-05-09T08:10:22Z</time>
      </trkpt>
      <trkpt lat="44.377706134691834" lon="11.284139240160584">
        <ele>298</ele>
        <time>2004-05-09T08:10:26Z</time>
      </trkpt>
      <trkpt lat="44.378070831298828" lon="11.284010410308838">
        <ele>294</ele>
        <time>2004-05-09T08:10:32Z</time>
      </trkpt>
      <trkpt lat="44.378242492675781" lon="11.28371000289917">
        <ele>289</ele>
        <time>2004-05-09T08:10:36Z</time>
      </trkpt>
      <trkpt lat="44.378371238708496" lon="11.28345251083374">
        <ele>285</ele>
        <time>2004-05-09T08:10:41Z</time>
      </trkpt>
      <trkpt lat="44.378349781036377" lon="11.283323764801025">
        <ele>283</ele>
        <time>2004-05-09T08:10:43Z</time>
      </trkpt>
      <trkpt lat="44.37828540802002" lon="11.283195018768311">
        <ele>282</ele>
        <time>2004-05-09T08:10:45Z</time>
      </trkpt>
      <trkpt lat="44.378178119659424" lon="11.283023441210389">
        <ele>280</ele>
        <time>2004-05-09T08:10:48Z</time>
      </trkpt>
      <trkpt lat="44.378156661987305" lon="11.282958984375">
        <ele>280</ele>
        <time>2004-05-09T08:10:49Z</time>
      </trkpt>
      <trkpt lat="44.378092288970947" lon="11.282851696014404">
        <ele>278</ele>
        <time>2004-05-09T08:10:51Z</time>
      </trkpt>
      <trkpt lat="44.377985000610352" lon="11.282637119293213">
        <ele>277</ele>
        <time>2004-05-09T08:10:55Z</time>
      </trkpt>
      <trkpt lat="44.378006458282471" lon="11.282486915588379">
        <ele>274</ele>
        <time>2004-05-09T08:10:59Z</time>
      </trkpt>
      <trkpt lat="44.378006458282471" lon="11.282486915588379">
        <ele>274</ele>
        <time>2004-05-09T08:11:00Z</time>
      </trkpt>
      <trkpt lat="44.377985000610352" lon="11.282465541735291">
        <ele>273</ele>
        <time>2004-05-09T08:11:25Z</time>
      </trkpt>
      <trkpt lat="44.378006458282471" lon="11.282444000244141">
        <ele>273</ele>
        <time>2004-05-09T08:11:33Z</time>
      </trkpt>
      <trkpt lat="44.378113662824035" lon="11.282465541735291">
        <ele>271</ele>
        <time>2004-05-09T08:11:38Z</time>
      </trkpt>
      <trkpt lat="44.378306865692139" lon="11.282572662457824">
        <ele>265</ele>
        <time>2004-05-09T08:11:44Z</time>
      </trkpt>
      <trkpt lat="44.3785644415766" lon="11.282486915588379">
        <ele>261</ele>
        <time>2004-05-09T08:11:48Z</time>
      </trkpt>
      <trkpt lat="44.378628730773926" lon="11.282465541735291">
        <ele>259</ele>
        <time>2004-05-09T08:11:49Z</time>
      </trkpt>
      <trkpt lat="44.378757476806641" lon="11.282508373260498">
        <ele>258</ele>
        <time>2004-05-09T08:11:52Z</time>
      </trkpt>
      <trkpt lat="44.37877893447876" lon="11.282551288604736">
        <ele>256</ele>
        <time>2004-05-09T08:11:53Z</time>
      </trkpt>
      <trkpt lat="44.378907680511475" lon="11.28270149230957">
        <ele>252</ele>
        <time>2004-05-09T08:11:56Z</time>
      </trkpt>
      <trkpt lat="44.379079341888428" lon="11.282808780670166">
        <ele>248</ele>
        <time>2004-05-09T08:12:01Z</time>
      </trkpt>
      <trkpt lat="44.379079341888428" lon="11.282808780670166">
        <ele>247</ele>
        <time>2004-05-09T08:12:02Z</time>
      </trkpt>
      <trkpt lat="44.379100799560547" lon="11.282808780670166">
        <ele>248</ele>
        <time>2004-05-09T08:12:03Z</time>
      </trkpt>
      <trkpt lat="44.379315376281738" lon="11.282594203948975">
        <ele>247</ele>
        <time>2004-05-09T08:12:15Z</time>
      </trkpt>
      <trkpt lat="44.379572868347168" lon="11.282250881195068">
        <ele>247</ele>
        <time>2004-05-09T08:12:32Z</time>
      </trkpt>
      <trkpt lat="44.379594326019287" lon="11.282122135162354">
        <ele>246</ele>
        <time>2004-05-09T08:12:43Z</time>
      </trkpt>
      <trkpt lat="44.379615783691406" lon="11.282100677490234">
        <ele>247</ele>
        <time>2004-05-09T08:12:55Z</time>
      </trkpt>
      <trkpt lat="44.379615783691406" lon="11.281886100769043">
        <ele>247</ele>
        <time>2004-05-09T08:13:02Z</time>
      </trkpt>
      <trkpt lat="44.379615783691406" lon="11.281371116638184">
        <ele>246</ele>
        <time>2004-05-09T08:13:15Z</time>
      </trkpt>
      <trkpt lat="44.379637241363525" lon="11.281199539080262">
        <ele>247</ele>
        <time>2004-05-09T08:13:18Z</time>
      </trkpt>
      <trkpt lat="44.379916191101074" lon="11.281135082244873">
        <ele>247</ele>
        <time>2004-05-09T08:13:26Z</time>
      </trkpt>
      <trkpt lat="44.379980564117432" lon="11.281156539916992">
        <ele>246</ele>
        <time>2004-05-09T08:13:28Z</time>
      </trkpt>
      <trkpt lat="44.38002347946167" lon="11.281177997589111">
        <ele>246</ele>
        <time>2004-05-09T08:13:37Z</time>
      </trkpt>
      <trkpt lat="44.380109310150146" lon="11.281199539080262">
        <ele>248</ele>
        <time>2004-05-09T08:13:44Z</time>
      </trkpt>
      <trkpt lat="44.380474090576172" lon="11.281285285949707">
        <ele>249</ele>
        <time>2004-05-09T08:13:56Z</time>
      </trkpt>
      <trkpt lat="44.380924701690674" lon="11.281006336212158">
        <ele>247</ele>
        <time>2004-05-09T08:14:09Z</time>
      </trkpt>
      <trkpt lat="44.380989074707031" lon="11.281006336212158">
        <ele>246</ele>
        <time>2004-05-09T08:14:13Z</time>
      </trkpt>
      <trkpt lat="44.381418228149414" lon="11.281156539916992">
        <ele>245</ele>
        <time>2004-05-09T08:14:32Z</time>
      </trkpt>
      <trkpt lat="44.381546974182129" lon="11.28122091293335">
        <ele>246</ele>
        <time>2004-05-09T08:14:36Z</time>
      </trkpt>
      <trkpt lat="44.381804466247559" lon="11.28122091293335">
        <ele>245</ele>
        <time>2004-05-09T08:14:45Z</time>
      </trkpt>
      <trkpt lat="44.382061958312988" lon="11.281414031982422">
        <ele>245</ele>
        <time>2004-05-09T08:14:57Z</time>
      </trkpt>
      <trkpt lat="44.382748603820801" lon="11.281735897064209">
        <ele>246</ele>
        <time>2004-05-09T08:15:25Z</time>
      </trkpt>
      <trkpt lat="44.382920265197754" lon="11.281735897064209">
        <ele>245</ele>
        <time>2004-05-09T08:15:33Z</time>
      </trkpt>
      <trkpt lat="44.382941722869873" lon="11.281692981719971">
        <ele>246</ele>
        <time>2004-05-09T08:15:38Z</time>
      </trkpt>
      <trkpt lat="44.382920265197754" lon="11.281628608703613">
        <ele>246</ele>
        <time>2004-05-09T08:15:45Z</time>
      </trkpt>
      <trkpt lat="44.382791519165039" lon="11.281499862670898">
        <ele>248</ele>
        <time>2004-05-09T08:16:02Z</time>
      </trkpt>
      <trkpt lat="44.382641315460205" lon="11.281392574310303">
        <ele>252</ele>
        <time>2004-05-09T08:16:16Z</time>
      </trkpt>
      <trkpt lat="44.382641315460205" lon="11.281371116638184">
        <ele>252</ele>
        <time>2004-05-09T08:16:17Z</time>
      </trkpt>
      <trkpt lat="44.382555484771729" lon="11.281285285949707">
        <ele>253</ele>
        <time>2004-05-09T08:16:25Z</time>
      </trkpt>
      <trkpt lat="44.382362365722656" lon="11.281092166900635">
        <ele>256</ele>
        <time>2004-05-09T08:16:42Z</time>
      </trkpt>
      <trkpt lat="44.382190704345703" lon="11.28096342086792">
        <ele>260</ele>
        <time>2004-05-09T08:16:54Z</time>
      </trkpt>
      <trkpt lat="44.381997585296631" lon="11.280770301818848">
        <ele>263</ele>
        <time>2004-05-09T08:17:12Z</time>
      </trkpt>
      <trkpt lat="44.381783008575439" lon="11.280598640441895">
        <ele>265</ele>
        <time>2004-05-09T08:17:29Z</time>
      </trkpt>
      <trkpt lat="44.381697177886963" lon="11.280512809753418">
        <ele>268</ele>
        <time>2004-05-09T08:17:36Z</time>
      </trkpt>
      <trkpt lat="44.38152551651001" lon="11.280341064557433">
        <ele>271</ele>
        <time>2004-05-09T08:17:51Z</time>
      </trkpt>
      <trkpt lat="44.381375312805176" lon="11.28021240234375">
        <ele>274</ele>
        <time>2004-05-09T08:18:05Z</time>
      </trkpt>
      <trkpt lat="44.381353938952088" lon="11.280190860852599">
        <ele>274</ele>
        <time>2004-05-09T08:18:07Z</time>
      </trkpt>
      <trkpt lat="44.381225109100342" lon="11.280062198638916">
        <ele>278</ele>
        <time>2004-05-09T08:18:21Z</time>
      </trkpt>
      <trkpt lat="44.381096363067627" lon="11.279933536425233">
        <ele>281</ele>
        <time>2004-05-09T08:18:37Z</time>
      </trkpt>
      <trkpt lat="44.381096363067627" lon="11.279911994934082">
        <ele>281</ele>
        <time>2004-05-09T08:18:39Z</time>
      </trkpt>
      <trkpt lat="44.381053363904357" lon="11.279869079589844">
        <ele>282</ele>
        <time>2004-05-09T08:18:44Z</time>
      </trkpt>
      <trkpt lat="44.380924701690674" lon="11.279740333557129">
        <ele>285</ele>
        <time>2004-05-09T08:18:57Z</time>
      </trkpt>
      <trkpt lat="44.380838871002197" lon="11.279654502868652">
        <ele>288</ele>
        <time>2004-05-09T08:19:09Z</time>
      </trkpt>
      <trkpt lat="44.380817413330078" lon="11.279632961377501">
        <ele>289</ele>
        <time>2004-05-09T08:19:10Z</time>
      </trkpt>
      <trkpt lat="44.380688667297363" lon="11.279482841491699">
        <ele>291</ele>
        <time>2004-05-09T08:19:26Z</time>
      </trkpt>
      <trkpt lat="44.380559921264648" lon="11.279375636950135">
        <ele>295</ele>
        <time>2004-05-09T08:19:39Z</time>
      </trkpt>
      <trkpt lat="44.380474090576172" lon="11.279246807098389">
        <ele>298</ele>
        <time>2004-05-09T08:19:50Z</time>
      </trkpt>
      <trkpt lat="44.380409717559814" lon="11.279182434082031">
        <ele>300</ele>
        <time>2004-05-09T08:19:58Z</time>
      </trkpt>
      <trkpt lat="44.380302429199219" lon="11.279096603393555">
        <ele>303</ele>
        <time>2004-05-09T08:20:09Z</time>
      </trkpt>
      <trkpt lat="44.3802809715271" lon="11.279053688049316">
        <ele>305</ele>
        <time>2004-05-09T08:20:12Z</time>
      </trkpt>
      <trkpt lat="44.380152225494385" lon="11.278946399688721">
        <ele>308</ele>
        <time>2004-05-09T08:20:25Z</time>
      </trkpt>
      <trkpt lat="44.379937564954162" lon="11.278860569000244">
        <ele>310</ele>
        <time>2004-05-09T08:20:45Z</time>
      </trkpt>
      <trkpt lat="44.379744529724121" lon="11.278796195983887">
        <ele>313</ele>
        <time>2004-05-09T08:21:01Z</time>
      </trkpt>
      <trkpt lat="44.379508495330811" lon="11.278731822967529">
        <ele>315</ele>
        <time>2004-05-09T08:21:21Z</time>
      </trkpt>
      <trkpt lat="44.379293918609619" lon="11.27871036529541">
        <ele>318</ele>
        <time>2004-05-09T08:21:40Z</time>
      </trkpt>
      <trkpt lat="44.379251003265381" lon="11.27871036529541">
        <ele>319</ele>
        <time>2004-05-09T08:21:44Z</time>
      </trkpt>
      <trkpt lat="44.379057884216309" lon="11.27871036529541">
        <ele>322</ele>
        <time>2004-05-09T08:22:03Z</time>
      </trkpt>
      <trkpt lat="44.378886222839355" lon="11.278753280639648">
        <ele>326</ele>
        <time>2004-05-09T08:22:18Z</time>
      </trkpt>
      <trkpt lat="44.378864765167236" lon="11.278753280639648">
        <ele>326</ele>
        <time>2004-05-09T08:22:19Z</time>
      </trkpt>
      <trkpt lat="44.378671562299132" lon="11.278796195983887">
        <ele>329</ele>
        <time>2004-05-09T08:22:35Z</time>
      </trkpt>
      <trkpt lat="44.378457069396973" lon="11.278839111328125">
        <ele>333</ele>
        <time>2004-05-09T08:22:48Z</time>
      </trkpt>
      <trkpt lat="44.378414237871766" lon="11.278839111328125">
        <ele>334</ele>
        <time>2004-05-09T08:22:50Z</time>
      </trkpt>
      <trkpt lat="44.378242492675781" lon="11.278903484344482">
        <ele>337</ele>
        <time>2004-05-09T08:23:04Z</time>
      </trkpt>
      <trkpt lat="44.378135204315186" lon="11.279182434082031">
        <ele>339</ele>
        <time>2004-05-09T08:23:24Z</time>
      </trkpt>
      <trkpt lat="44.377963459119201" lon="11.279590129852295">
        <ele>339</ele>
        <time>2004-05-09T08:23:46Z</time>
      </trkpt>
      <trkpt lat="44.377813339233398" lon="11.279890537261963">
        <ele>339</ele>
        <time>2004-05-09T08:24:04Z</time>
      </trkpt>
      <trkpt lat="44.377727508544922" lon="11.280148029327393">
        <ele>341</ele>
        <time>2004-05-09T08:24:16Z</time>
      </trkpt>
      <trkpt lat="44.377663135528564" lon="11.280169486999512">
        <ele>342</ele>
        <time>2004-05-09T08:24:25Z</time>
      </trkpt>
      <trkpt lat="44.377641677856445" lon="11.280169486999512">
        <ele>343</ele>
        <time>2004-05-09T08:25:02Z</time>
      </trkpt>
      <trkpt lat="44.377641677856445" lon="11.28021240234375">
        <ele>343</ele>
        <time>2004-05-09T08:30:18Z</time>
      </trkpt>
      <trkpt lat="44.377555763348937" lon="11.280148029327393">
        <ele>348</ele>
        <time>2004-05-09T08:30:33Z</time>
      </trkpt>
      <trkpt lat="44.377555763348937" lon="11.280126571655273">
        <ele>348</ele>
        <time>2004-05-09T08:30:35Z</time>
      </trkpt>
      <trkpt lat="44.377491474151611" lon="11.280083740130067">
        <ele>351</ele>
        <time>2004-05-09T08:30:50Z</time>
      </trkpt>
      <trkpt lat="44.377470016479492" lon="11.280019283294678">
        <ele>351</ele>
        <time>2004-05-09T08:31:01Z</time>
      </trkpt>
      <trkpt lat="44.377384185791016" lon="11.27995491027832">
        <ele>352</ele>
        <time>2004-05-09T08:31:12Z</time>
      </trkpt>
      <trkpt lat="44.377362728118896" lon="11.279933536425233">
        <ele>353</ele>
        <time>2004-05-09T08:31:16Z</time>
      </trkpt>
      <trkpt lat="44.377298438921571" lon="11.279890537261963">
        <ele>355</ele>
        <time>2004-05-09T08:31:31Z</time>
      </trkpt>
      <trkpt lat="44.377233982086182" lon="11.279847621917725">
        <ele>356</ele>
        <time>2004-05-09T08:31:46Z</time>
      </trkpt>
      <trkpt lat="44.377126693725586" lon="11.279804706573486">
        <ele>358</ele>
        <time>2004-05-09T08:32:01Z</time>
      </trkpt>
      <trkpt lat="44.377040863037109" lon="11.279740333557129">
        <ele>360</ele>
        <time>2004-05-09T08:32:16Z</time>
      </trkpt>
      <trkpt lat="44.376976490020752" lon="11.279740333557129">
        <ele>362</ele>
        <time>2004-05-09T08:32:33Z</time>
      </trkpt>
      <trkpt lat="44.376933574676514" lon="11.279740333557129">
        <ele>364</ele>
        <time>2004-05-09T08:32:44Z</time>
      </trkpt>
      <trkpt lat="44.376869201660156" lon="11.279740333557129">
        <ele>365</ele>
        <time>2004-05-09T08:33:01Z</time>
      </trkpt>
      <trkpt lat="44.376869201660156" lon="11.279740333557129">
        <ele>366</ele>
        <time>2004-05-09T08:33:04Z</time>
      </trkpt>
      <trkpt lat="44.37678337097168" lon="11.279761791229248">
        <ele>368</ele>
        <time>2004-05-09T08:33:22Z</time>
      </trkpt>
      <trkpt lat="44.376676082611084" lon="11.279826164245605">
        <ele>371</ele>
        <time>2004-05-09T08:33:35Z</time>
      </trkpt>
      <trkpt lat="44.376654624938965" lon="11.279869079589844">
        <ele>372</ele>
        <time>2004-05-09T08:33:41Z</time>
      </trkpt>
      <trkpt lat="44.376611709594727" lon="11.279890537261963">
        <ele>372</ele>
        <time>2004-05-09T08:33:48Z</time>
      </trkpt>
      <trkpt lat="44.376611709594727" lon="11.279911994934082">
        <ele>372</ele>
        <time>2004-05-09T08:33:50Z</time>
      </trkpt>
      <trkpt lat="44.376354217529297" lon="11.280062198638916">
        <ele>376</ele>
        <time>2004-05-09T08:34:08Z</time>
      </trkpt>
      <trkpt lat="44.376075267791748" lon="11.280233860015869">
        <ele>377</ele>
        <time>2004-05-09T08:34:29Z</time>
      </trkpt>
      <trkpt lat="44.376053810119629" lon="11.280298233032227">
        <ele>377</ele>
        <time>2004-05-09T08:34:32Z</time>
      </trkpt>
      <trkpt lat="44.376032436266541" lon="11.280298233032227">
        <ele>377</ele>
        <time>2004-05-09T08:35:13Z</time>
      </trkpt>
      <trkpt lat="44.375925064086914" lon="11.279911994934082">
        <ele>378</ele>
        <time>2004-05-09T08:35:32Z</time>
      </trkpt>
      <trkpt lat="44.375839233398438" lon="11.279547214508057">
        <ele>378</ele>
        <time>2004-05-09T08:35:51Z</time>
      </trkpt>
      <trkpt lat="44.375946521759033" lon="11.279332637786865">
        <ele>381</ele>
        <time>2004-05-09T08:36:07Z</time>
      </trkpt>
      <trkpt lat="44.376182639971375" lon="11.279246807098389">
        <ele>384</ele>
        <time>2004-05-09T08:36:26Z</time>
      </trkpt>
      <trkpt lat="44.376482963562012" lon="11.279032230377197">
        <ele>386</ele>
        <time>2004-05-09T08:36:45Z</time>
      </trkpt>
      <trkpt lat="44.376718997955322" lon="11.27871036529541">
        <ele>386</ele>
        <time>2004-05-09T08:37:03Z</time>
      </trkpt>
      <trkpt lat="44.376740539446473" lon="11.278195381164551">
        <ele>388</ele>
        <time>2004-05-09T08:37:22Z</time>
      </trkpt>
      <trkpt lat="44.376590335741639" lon="11.277766227722168">
        <ele>389</ele>
        <time>2004-05-09T08:37:43Z</time>
      </trkpt>
      <trkpt lat="44.376568794250488" lon="11.277680397033691">
        <ele>390</ele>
        <time>2004-05-09T08:37:48Z</time>
      </trkpt>
      <trkpt lat="44.37652587890625" lon="11.277530193328857">
        <ele>390</ele>
        <time>2004-05-09T08:38:11Z</time>
      </trkpt>
      <trkpt lat="44.376504421234131" lon="11.277530193328857">
        <ele>389</ele>
        <time>2004-05-09T08:40:29Z</time>
      </trkpt>
      <trkpt lat="44.376461505889893" lon="11.277444362640381">
        <ele>390</ele>
        <time>2004-05-09T08:41:52Z</time>
      </trkpt>
      <trkpt lat="44.376354217529297" lon="11.27720832824707">
        <ele>393</ele>
        <time>2004-05-09T08:42:11Z</time>
      </trkpt>
      <trkpt lat="44.376204013824463" lon="11.277101039886475">
        <ele>395</ele>
        <time>2004-05-09T08:42:26Z</time>
      </trkpt>
      <trkpt lat="44.375967979431152" lon="11.277058124542236">
        <ele>397</ele>
        <time>2004-05-09T08:42:44Z</time>
      </trkpt>
      <trkpt lat="44.375689029693604" lon="11.276993835344911">
        <ele>398</ele>
        <time>2004-05-09T08:43:03Z</time>
      </trkpt>
      <trkpt lat="44.375388622283936" lon="11.276907920837402">
        <ele>398</ele>
        <time>2004-05-09T08:43:21Z</time>
      </trkpt>
      <trkpt lat="44.37502384185791" lon="11.276843464002013">
        <ele>396</ele>
        <time>2004-05-09T08:43:39Z</time>
      </trkpt>
      <trkpt lat="44.374980926513672" lon="11.276779174804688">
        <ele>394</ele>
        <time>2004-05-09T08:43:42Z</time>
      </trkpt>
      <trkpt lat="44.374916637316346" lon="11.276671886444092">
        <ele>392</ele>
        <time>2004-05-09T08:43:45Z</time>
      </trkpt>
      <trkpt lat="44.374637603759766" lon="11.276264190673828">
        <ele>389</ele>
        <time>2004-05-09T08:43:58Z</time>
      </trkpt>
      <trkpt lat="44.374337196350098" lon="11.275899410247803">
        <ele>387</ele>
        <time>2004-05-09T08:44:14Z</time>
      </trkpt>
      <trkpt lat="44.374294281005859" lon="11.275491714477539">
        <ele>386</ele>
        <time>2004-05-09T08:44:31Z</time>
      </trkpt>
      <trkpt lat="44.374423027038574" lon="11.275427341461182">
        <ele>383</ele>
        <time>2004-05-09T08:44:38Z</time>
      </trkpt>
      <trkpt lat="44.374766265973449" lon="11.275148391723633">
        <ele>383</ele>
        <time>2004-05-09T08:44:55Z</time>
      </trkpt>
      <trkpt lat="44.374938011169434" lon="11.275019561871886">
        <ele>385</ele>
        <time>2004-05-09T08:45:07Z</time>
      </trkpt>
      <trkpt lat="44.37502384185791" lon="11.274869358167052">
        <ele>382</ele>
        <time>2004-05-09T08:45:15Z</time>
      </trkpt>
      <trkpt lat="44.375088214874268" lon="11.27471923828125">
        <ele>379</ele>
        <time>2004-05-09T08:45:22Z</time>
      </trkpt>
      <trkpt lat="44.375109672546387" lon="11.274633407592773">
        <ele>377</ele>
        <time>2004-05-09T08:45:24Z</time>
      </trkpt>
      <trkpt lat="44.375216960906982" lon="11.274375915527344">
        <ele>375</ele>
        <time>2004-05-09T08:45:28Z</time>
      </trkpt>
      <trkpt lat="44.375345706939697" lon="11.274182796478271">
        <ele>370</ele>
        <time>2004-05-09T08:45:32Z</time>
      </trkpt>
      <trkpt lat="44.375410079956055" lon="11.274096965789795">
        <ele>369</ele>
        <time>2004-05-09T08:45:40Z</time>
      </trkpt>
      <trkpt lat="44.375410079956055" lon="11.274096965789795">
        <ele>366</ele>
        <time>2004-05-09T08:45:48Z</time>
      </trkpt>
      <trkpt lat="44.375410079956055" lon="11.274096965789795">
        <ele>365</ele>
        <time>2004-05-09T08:45:49Z</time>
      </trkpt>
      <trkpt lat="44.375388622283936" lon="11.274075508117676">
        <ele>367</ele>
        <time>2004-05-09T08:46:11Z</time>
      </trkpt>
      <trkpt lat="44.375367164611816" lon="11.274054134264588">
        <ele>367</ele>
        <time>2004-05-09T08:46:37Z</time>
      </trkpt>
      <trkpt lat="44.375216960906982" lon="11.274011135101318">
        <ele>364</ele>
        <time>2004-05-09T08:46:45Z</time>
      </trkpt>
      <trkpt lat="44.375131130218506" lon="11.274054134264588">
        <ele>362</ele>
        <time>2004-05-09T08:46:50Z</time>
      </trkpt>
      <trkpt lat="44.375152587890625" lon="11.274011135101318">
        <ele>361</ele>
        <time>2004-05-09T08:46:51Z</time>
      </trkpt>
      <trkpt lat="44.375216960906982" lon="11.273860931396484">
        <ele>359</ele>
        <time>2004-05-09T08:46:54Z</time>
      </trkpt>
      <trkpt lat="44.375238418579102" lon="11.273818016052246">
        <ele>357</ele>
        <time>2004-05-09T08:46:55Z</time>
      </trkpt>
      <trkpt lat="44.375195503234863" lon="11.273603439331055">
        <ele>354</ele>
        <time>2004-05-09T08:47:03Z</time>
      </trkpt>
      <trkpt lat="44.375173961743712" lon="11.27321720123291">
        <ele>350</ele>
        <time>2004-05-09T08:47:21Z</time>
      </trkpt>
      <trkpt lat="44.375173961743712" lon="11.273195659741759">
        <ele>350</ele>
        <time>2004-05-09T08:47:22Z</time>
      </trkpt>
      <trkpt lat="44.375109672546387" lon="11.273088539019227">
        <ele>347</ele>
        <time>2004-05-09T08:47:26Z</time>
      </trkpt>
      <trkpt lat="44.37506684102118" lon="11.273045539855957">
        <ele>346</ele>
        <time>2004-05-09T08:47:31Z</time>
      </trkpt>
      <trkpt lat="44.374895095825195" lon="11.273066997528076">
        <ele>342</ele>
        <time>2004-05-09T08:47:44Z</time>
      </trkpt>
      <trkpt lat="44.374830722808838" lon="11.273088539019227">
        <ele>339</ele>
        <time>2004-05-09T08:47:48Z</time>
      </trkpt>
      <trkpt lat="44.374744892120361" lon="11.273088539019227">
        <ele>336</ele>
        <time>2004-05-09T08:47:51Z</time>
      </trkpt>
      <trkpt lat="44.374680519104004" lon="11.273088539019227">
        <ele>335</ele>
        <time>2004-05-09T08:47:53Z</time>
      </trkpt>
      <trkpt lat="44.37453031539917" lon="11.273088539019227">
        <ele>331</ele>
        <time>2004-05-09T08:47:57Z</time>
      </trkpt>
      <trkpt lat="44.374423027038574" lon="11.273088539019227">
        <ele>328</ele>
        <time>2004-05-09T08:48:00Z</time>
      </trkpt>
      <trkpt lat="44.374251365661621" lon="11.273109912872314">
        <ele>325</ele>
        <time>2004-05-09T08:48:04Z</time>
      </trkpt>
      <trkpt lat="44.374208534136415" lon="11.273109912872314">
        <ele>323</ele>
        <time>2004-05-09T08:48:06Z</time>
      </trkpt>
      <trkpt lat="44.374186992645264" lon="11.273109912872314">
        <ele>323</ele>
        <time>2004-05-09T08:48:08Z</time>
      </trkpt>
      <trkpt lat="44.374122619628906" lon="11.273131370544434">
        <ele>321</ele>
        <time>2004-05-09T08:48:10Z</time>
      </trkpt>
      <trkpt lat="44.37403678894043" lon="11.273131370544434">
        <ele>319</ele>
        <time>2004-05-09T08:48:12Z</time>
      </trkpt>
      <trkpt lat="44.373907959088683" lon="11.273152828216553">
        <ele>318</ele>
        <time>2004-05-09T08:48:15Z</time>
      </trkpt>
      <trkpt lat="44.373714923858643" lon="11.273131370544434">
        <ele>314</ele>
        <time>2004-05-09T08:48:19Z</time>
      </trkpt>
      <trkpt lat="44.373607635498047" lon="11.273131370544434">
        <ele>313</ele>
        <time>2004-05-09T08:48:22Z</time>
      </trkpt>
      <trkpt lat="44.37352180480957" lon="11.273131370544434">
        <ele>311</ele>
        <time>2004-05-09T08:48:25Z</time>
      </trkpt>
      <trkpt lat="44.373393058776855" lon="11.273174285888672">
        <ele>308</ele>
        <time>2004-05-09T08:48:30Z</time>
      </trkpt>
      <trkpt lat="44.373242938891053" lon="11.273195659741759">
        <ele>304</ele>
        <time>2004-05-09T08:48:34Z</time>
      </trkpt>
      <trkpt lat="44.373135566711426" lon="11.273238658905029">
        <ele>301</ele>
        <time>2004-05-09T08:48:38Z</time>
      </trkpt>
      <trkpt lat="44.37302827835083" lon="11.273260116577148">
        <ele>299</ele>
        <time>2004-05-09T08:48:41Z</time>
      </trkpt>
      <trkpt lat="44.372920989990234" lon="11.273281574249268">
        <ele>294</ele>
        <time>2004-05-09T08:48:46Z</time>
      </trkpt>
      <trkpt lat="44.372878074645996" lon="11.273303031921387">
        <ele>292</ele>
        <time>2004-05-09T08:48:48Z</time>
      </trkpt>
      <trkpt lat="44.372792160138488" lon="11.273303031921387">
        <ele>288</ele>
        <time>2004-05-09T08:48:51Z</time>
      </trkpt>
      <trkpt lat="44.372663497924805" lon="11.273345863446593">
        <ele>285</ele>
        <time>2004-05-09T08:48:56Z</time>
      </trkpt>
      <trkpt lat="44.372534835711122" lon="11.273367404937744">
        <ele>284</ele>
        <time>2004-05-09T08:49:15Z</time>
      </trkpt>
      <trkpt lat="44.372534835711122" lon="11.273453235626221">
        <ele>281</ele>
        <time>2004-05-09T08:49:20Z</time>
      </trkpt>
      <trkpt lat="44.372577667236328" lon="11.27347469329834">
        <ele>280</ele>
        <time>2004-05-09T08:49:24Z</time>
      </trkpt>
      <trkpt lat="44.372577667236328" lon="11.27347469329834">
        <ele>279</ele>
        <time>2004-05-09T08:49:27Z</time>
      </trkpt>
      <trkpt lat="44.372577667236328" lon="11.273496234789491">
        <ele>279</ele>
        <time>2004-05-09T08:49:42Z</time>
      </trkpt>
      <trkpt lat="44.372556209564209" lon="11.273496234789491">
        <ele>279</ele>
        <time>2004-05-09T08:49:45Z</time>
      </trkpt>
      <trkpt lat="44.372491836547852" lon="11.273560523986816">
        <ele>276</ele>
        <time>2004-05-09T08:49:52Z</time>
      </trkpt>
      <trkpt lat="44.372406005859375" lon="11.273624897003174">
        <ele>272</ele>
        <time>2004-05-09T08:49:58Z</time>
      </trkpt>
      <trkpt lat="44.372298717498779" lon="11.27371072769165">
        <ele>269</ele>
        <time>2004-05-09T08:50:03Z</time>
      </trkpt>
      <trkpt lat="44.372148513793945" lon="11.273689270019531">
        <ele>266</ele>
        <time>2004-05-09T08:50:09Z</time>
      </trkpt>
      <trkpt lat="44.372084140777588" lon="11.273689270019531">
        <ele>264</ele>
        <time>2004-05-09T08:50:12Z</time>
      </trkpt>
      <trkpt lat="44.372062683105469" lon="11.273667812347412">
        <ele>262</ele>
        <time>2004-05-09T08:50:14Z</time>
      </trkpt>
      <trkpt lat="44.371998310089111" lon="11.273603439331055">
        <ele>260</ele>
        <time>2004-05-09T08:50:18Z</time>
      </trkpt>
      <trkpt lat="44.371955394744873" lon="11.27347469329834">
        <ele>255</ele>
        <time>2004-05-09T08:50:22Z</time>
      </trkpt>
      <trkpt lat="44.371912479400635" lon="11.273388862609863">
        <ele>252</ele>
        <time>2004-05-09T08:50:25Z</time>
      </trkpt>
      <trkpt lat="44.371912479400635" lon="11.273345863446593">
        <ele>250</ele>
        <time>2004-05-09T08:50:29Z</time>
      </trkpt>
      <trkpt lat="44.371891021728516" lon="11.273238658905029">
        <ele>247</ele>
        <time>2004-05-09T08:50:35Z</time>
      </trkpt>
      <trkpt lat="44.371891021728516" lon="11.273238658905029">
        <ele>246</ele>
        <time>2004-05-09T08:50:37Z</time>
      </trkpt>
      <trkpt lat="44.371869564056396" lon="11.27321720123291">
        <ele>244</ele>
        <time>2004-05-09T08:51:00Z</time>
      </trkpt>
      <trkpt lat="44.371869564056396" lon="11.27321720123291">
        <ele>242</ele>
        <time>2004-05-09T08:51:02Z</time>
      </trkpt>
      <trkpt lat="44.371826564893126" lon="11.273195659741759">
        <ele>242</ele>
        <time>2004-05-09T08:51:17Z</time>
      </trkpt>
      <trkpt lat="44.371826564893126" lon="11.273174285888672">
        <ele>241</ele>
        <time>2004-05-09T08:51:19Z</time>
      </trkpt>
      <trkpt lat="44.371612071990967" lon="11.273088539019227">
        <ele>237</ele>
        <time>2004-05-09T08:51:22Z</time>
      </trkpt>
      <trkpt lat="44.371612071990967" lon="11.273002624511719">
        <ele>229</ele>
        <time>2004-05-09T08:51:24Z</time>
      </trkpt>
      <trkpt lat="44.371612071990967" lon="11.273002624511719">
        <ele>232</ele>
        <time>2004-05-09T08:51:25Z</time>
      </trkpt>
      <trkpt lat="44.371612071990967" lon="11.273002624511719">
        <ele>232</ele>
        <time>2004-05-09T08:51:35Z</time>
      </trkpt>
      <trkpt lat="44.371612071990967" lon="11.273002624511719">
        <ele>233</ele>
        <time>2004-05-09T08:51:54Z</time>
      </trkpt>
      <trkpt lat="44.371612071990967" lon="11.273002624511719">
        <ele>232</ele>
        <time>2004-05-09T08:52:04Z</time>
      </trkpt>
      <trkpt lat="44.371612071990967" lon="11.272916793823242">
        <ele>231</ele>
        <time>2004-05-09T08:52:09Z</time>
      </trkpt>
      <trkpt lat="44.371633529663086" lon="11.272809505462646">
        <ele>231</ele>
        <time>2004-05-09T08:56:19Z</time>
      </trkpt>
      <trkpt lat="44.371805191040039" lon="11.272315979003906">
        <ele>230</ele>
        <time>2004-05-09T08:56:35Z</time>
      </trkpt>
      <trkpt lat="44.371912479400635" lon="11.271758079528809">
        <ele>227</ele>
        <time>2004-05-09T08:56:46Z</time>
      </trkpt>
      <trkpt lat="44.372363090515137" lon="11.270921230316162">
        <ele>226</ele>
        <time>2004-05-09T08:57:07Z</time>
      </trkpt>
      <trkpt lat="44.372685039415956" lon="11.270513534545898">
        <ele>227</ele>
        <time>2004-05-09T08:57:24Z</time>
      </trkpt>
      <trkpt lat="44.372899532318115" lon="11.270255958661437">
        <ele>230</ele>
        <time>2004-05-09T08:57:37Z</time>
      </trkpt>
      <trkpt lat="44.373071193695068" lon="11.270020008087158">
        <ele>231</ele>
        <time>2004-05-09T08:57:52Z</time>
      </trkpt>
      <trkpt lat="44.373221397399902" lon="11.269698059186339">
        <ele>232</ele>
        <time>2004-05-09T08:58:08Z</time>
      </trkpt>
      <trkpt lat="44.373435974121094" lon="11.26922607421875">
        <ele>233</ele>
        <time>2004-05-09T08:58:24Z</time>
      </trkpt>
      <trkpt lat="44.373650634661317" lon="11.269011497497559">
        <ele>234</ele>
        <time>2004-05-09T08:58:35Z</time>
      </trkpt>
      <trkpt lat="44.373950958251953" lon="11.268582260236144">
        <ele>234</ele>
        <time>2004-05-09T08:58:50Z</time>
      </trkpt>
      <trkpt lat="44.374122619628906" lon="11.268002986907959">
        <ele>236</ele>
        <time>2004-05-09T08:59:06Z</time>
      </trkpt>
      <trkpt lat="44.37427282333374" lon="11.267209136858582">
        <ele>238</ele>
        <time>2004-05-09T08:59:26Z</time>
      </trkpt>
      <trkpt lat="44.374401569366455" lon="11.266565322875977">
        <ele>237</ele>
        <time>2004-05-09T08:59:43Z</time>
      </trkpt>
      <trkpt lat="44.374573230743408" lon="11.265943134203553">
        <ele>236</ele>
        <time>2004-05-09T08:59:55Z</time>
      </trkpt>
      <trkpt lat="44.374594688415527" lon="11.265578269958496">
        <ele>235</ele>
        <time>2004-05-09T09:00:01Z</time>
      </trkpt>
      <trkpt lat="44.374594688415527" lon="11.265342235565186">
        <ele>235</ele>
        <time>2004-05-09T09:00:05Z</time>
      </trkpt>
      <trkpt lat="44.374401569366455" lon="11.264333724975586">
        <ele>235</ele>
        <time>2004-05-09T09:00:21Z</time>
      </trkpt>
      <trkpt lat="44.373865127563477" lon="11.263153636828065">
        <ele>234</ele>
        <time>2004-05-09T09:00:42Z</time>
      </trkpt>
      <trkpt lat="44.373650634661317" lon="11.262273788452148">
        <ele>233</ele>
        <time>2004-05-09T09:00:58Z</time>
      </trkpt>
      <trkpt lat="44.373693466186523" lon="11.262059211730957">
        <ele>234</ele>
        <time>2004-05-09T09:01:02Z</time>
      </trkpt>
      <trkpt lat="44.374058162793517" lon="11.261522769927979">
        <ele>233</ele>
        <time>2004-05-09T09:01:18Z</time>
      </trkpt>
      <trkpt lat="44.374229907989502" lon="11.261286735534668">
        <ele>234</ele>
        <time>2004-05-09T09:01:31Z</time>
      </trkpt>
      <trkpt lat="44.374315738677979" lon="11.261179363355041">
        <ele>238</ele>
        <time>2004-05-09T09:01:39Z</time>
      </trkpt>
      <trkpt lat="44.374401569366455" lon="11.261072158813477">
        <ele>239</ele>
        <time>2004-05-09T09:01:46Z</time>
      </trkpt>
      <trkpt lat="44.37453031539917" lon="11.260900497436523">
        <ele>242</ele>
        <time>2004-05-09T09:01:58Z</time>
      </trkpt>
      <trkpt lat="44.374551773071289" lon="11.260857582092285">
        <ele>245</ele>
        <time>2004-05-09T09:02:14Z</time>
      </trkpt>
      <trkpt lat="44.374723434448242" lon="11.260643005371094">
        <ele>247</ele>
        <time>2004-05-09T09:02:32Z</time>
      </trkpt>
      <trkpt lat="44.375088214874268" lon="11.260964870452881">
        <ele>250</ele>
        <time>2004-05-09T09:02:40Z</time>
      </trkpt>
      <trkpt lat="44.375088214874268" lon="11.260964870452881">
        <ele>251</ele>
        <time>2004-05-09T09:02:44Z</time>
      </trkpt>
      <trkpt lat="44.375109672546387" lon="11.260879039764404">
        <ele>252</ele>
        <time>2004-05-09T09:02:54Z</time>
      </trkpt>
      <trkpt lat="44.375259876251221" lon="11.260471260175109">
        <ele>253</ele>
        <time>2004-05-09T09:03:13Z</time>
      </trkpt>
      <trkpt lat="44.37573186121881" lon="11.260278224945068">
        <ele>254</ele>
        <time>2004-05-09T09:03:33Z</time>
      </trkpt>
      <trkpt lat="44.376139640808105" lon="11.259956359863281">
        <ele>255</ele>
        <time>2004-05-09T09:03:54Z</time>
      </trkpt>
      <trkpt lat="44.37652587890625" lon="11.259698867797852">
        <ele>255</ele>
        <time>2004-05-09T09:04:12Z</time>
      </trkpt>
      <trkpt lat="44.376826286315918" lon="11.260020732879639">
        <ele>256</ele>
        <time>2004-05-09T09:04:27Z</time>
      </trkpt>
      <trkpt lat="44.377062320709229" lon="11.26023530960083">
        <ele>260</ele>
        <time>2004-05-09T09:04:40Z</time>
      </trkpt>
      <trkpt lat="44.377255439758301" lon="11.260170936584473">
        <ele>262</ele>
        <time>2004-05-09T09:04:55Z</time>
      </trkpt>
      <trkpt lat="44.377384185791016" lon="11.260042190551758">
        <ele>264</ele>
        <time>2004-05-09T09:05:09Z</time>
      </trkpt>
      <trkpt lat="44.377555763348937" lon="11.259870529174805">
        <ele>268</ele>
        <time>2004-05-09T09:05:23Z</time>
      </trkpt>
      <trkpt lat="44.377706134691834" lon="11.25974178314209">
        <ele>271</ele>
        <time>2004-05-09T09:05:34Z</time>
      </trkpt>
      <trkpt lat="44.377899169921875" lon="11.259656036272645">
        <ele>274</ele>
        <time>2004-05-09T09:05:47Z</time>
      </trkpt>
      <trkpt lat="44.378135204315186" lon="11.259548664093018">
        <ele>277</ele>
        <time>2004-05-09T09:06:05Z</time>
      </trkpt>
      <trkpt lat="44.378156661987305" lon="11.25948429107666">
        <ele>278</ele>
        <time>2004-05-09T09:06:09Z</time>
      </trkpt>
      <trkpt lat="44.378371238708496" lon="11.259140968322754">
        <ele>281</ele>
        <time>2004-05-09T09:06:31Z</time>
      </trkpt>
      <trkpt lat="44.378457069396973" lon="11.25899076461792">
        <ele>285</ele>
        <time>2004-05-09T09:06:41Z</time>
      </trkpt>
      <trkpt lat="44.378628730773926" lon="11.258711814880371">
        <ele>287</ele>
        <time>2004-05-09T09:06:59Z</time>
      </trkpt>
      <trkpt lat="44.378757476806641" lon="11.258454322814941">
        <ele>290</ele>
        <time>2004-05-09T09:07:14Z</time>
      </trkpt>
      <trkpt lat="44.378821766003966" lon="11.258347034454346">
        <ele>292</ele>
        <time>2004-05-09T09:07:20Z</time>
      </trkpt>
      <trkpt lat="44.378864765167236" lon="11.258282661437988">
        <ele>293</ele>
        <time>2004-05-09T09:07:24Z</time>
      </trkpt>
      <trkpt lat="44.37901496887207" lon="11.258046627044678">
        <ele>297</ele>
        <time>2004-05-09T09:07:40Z</time>
      </trkpt>
      <trkpt lat="44.379208087921143" lon="11.257810592651367">
        <ele>300</ele>
        <time>2004-05-09T09:07:57Z</time>
      </trkpt>
      <trkpt lat="44.379508495330811" lon="11.257789134979248">
        <ele>300</ele>
        <time>2004-05-09T09:08:12Z</time>
      </trkpt>
      <trkpt lat="44.379744529724121" lon="11.257767677307129">
        <ele>300</ele>
        <time>2004-05-09T09:08:20Z</time>
      </trkpt>
      <trkpt lat="44.38002347946167" lon="11.25774621963501">
        <ele>300</ele>
        <time>2004-05-09T09:08:31Z</time>
      </trkpt>
      <trkpt lat="44.380838871002197" lon="11.257574558258057">
        <ele>299</ele>
        <time>2004-05-09T09:08:56Z</time>
      </trkpt>
      <trkpt lat="44.381246566772461" lon="11.257424438372254">
        <ele>300</ele>
        <time>2004-05-09T09:09:16Z</time>
      </trkpt>
      <trkpt lat="44.381246566772461" lon="11.257424438372254">
        <ele>302</ele>
        <time>2004-05-09T09:09:36Z</time>
      </trkpt>
      <trkpt lat="44.381825923919678" lon="11.257059574127197">
        <ele>305</ele>
        <time>2004-05-09T09:09:47Z</time>
      </trkpt>
      <trkpt lat="44.382083415985107" lon="11.25699520111084">
        <ele>308</ele>
        <time>2004-05-09T09:10:03Z</time>
      </trkpt>
      <trkpt lat="44.382190704345703" lon="11.256952285766602">
        <ele>311</ele>
        <time>2004-05-09T09:10:11Z</time>
      </trkpt>
      <trkpt lat="44.382362365722656" lon="11.256823539733887">
        <ele>314</ele>
        <time>2004-05-09T09:10:27Z</time>
      </trkpt>
      <trkpt lat="44.382383823394775" lon="11.256823539733887">
        <ele>314</ele>
        <time>2004-05-09T09:10:28Z</time>
      </trkpt>
      <trkpt lat="44.38251256942749" lon="11.256844997406006">
        <ele>316</ele>
        <time>2004-05-09T09:10:39Z</time>
      </trkpt>
      <trkpt lat="44.382555484771729" lon="11.256844997406006">
        <ele>316</ele>
        <time>2004-05-09T09:10:41Z</time>
      </trkpt>
      <trkpt lat="44.38277006149292" lon="11.256780624389648">
        <ele>319</ele>
        <time>2004-05-09T09:10:57Z</time>
      </trkpt>
      <trkpt lat="44.382963180541992" lon="11.256679119542241">
        <ele>322</ele>
        <time>2004-05-09T09:11:15Z</time>
      </trkpt>
      <trkpt lat="44.383183876052499" lon="11.25679487362504">
        <ele>317</ele>
        <time>2004-05-09T09:15:56Z</time>
      </trkpt>
      <trkpt lat="44.383248332887888" lon="11.256945077329874">
        <ele>316</ele>
        <time>2004-05-09T09:15:59Z</time>
      </trkpt>
      <trkpt lat="44.383269706740975" lon="11.257245568558574">
        <ele>316</ele>
        <time>2004-05-09T07:07:24Z</time>
      </trkpt>
      <trkpt lat="44.38320541754365" lon="11.257610265165567">
        <ele>313</ele>
        <time>2004-05-09T07:07:05Z</time>
      </trkpt>
      <trkpt lat="44.383140960708261" lon="11.25808241777122">
        <ele>310</ele>
        <time>2004-05-09T07:06:43Z</time>
      </trkpt>
      <trkpt lat="44.383162502199411" lon="11.258318368345499">
        <ele>308</ele>
        <time>2004-05-09T07:06:33Z</time>
      </trkpt>
      <trkpt lat="44.383140960708261" lon="11.258618775755167">
        <ele>305</ele>
        <time>2004-05-09T07:06:18Z</time>
      </trkpt>
      <trkpt lat="44.383055213838816" lon="11.258876267820597">
        <ele>303</ele>
        <time>2004-05-09T07:05:59Z</time>
      </trkpt>
      <trkpt lat="44.38294792547822" lon="11.259026471525431">
        <ele>300</ele>
        <time>2004-05-09T07:05:46Z</time>
      </trkpt>
      <trkpt lat="44.382926383987069" lon="11.259241132065654">
        <ele>297</ele>
        <time>2004-05-09T07:05:31Z</time>
      </trkpt>
      <trkpt lat="44.382990840822458" lon="11.259305505082011">
        <ele>296</ele>
        <time>2004-05-09T07:05:20Z</time>
      </trkpt>
      <trkpt lat="44.383162502199411" lon="11.259326878935099">
        <ele>293</ele>
        <time>2004-05-09T07:05:02Z</time>
      </trkpt>
      <trkpt lat="44.383398536592722" lon="11.259434167295694">
        <ele>290</ele>
        <time>2004-05-09T07:04:42Z</time>
      </trkpt>
      <trkpt lat="44.383548740297556" lon="11.259648827835917">
        <ele>287</ele>
        <time>2004-05-09T07:04:25Z</time>
      </trkpt>
      <trkpt lat="44.383677402511239" lon="11.259863404557109">
        <ele>284</ele>
        <time>2004-05-09T07:04:08Z</time>
      </trkpt>
      <trkpt lat="44.383870605379343" lon="11.260099438950419">
        <ele>281</ele>
        <time>2004-05-09T07:03:46Z</time>
      </trkpt>
      <trkpt lat="44.384128097444773" lon="11.260185269638896">
        <ele>280</ele>
        <time>2004-05-09T07:03:26Z</time>
      </trkpt>
      <trkpt lat="44.38414947129786" lon="11.260206727311015">
        <ele>280</ele>
        <time>2004-05-09T07:03:24Z</time>
      </trkpt>
      <trkpt lat="44.38440696336329" lon="11.26029247418046">
        <ele>276</ele>
        <time>2004-05-09T07:03:05Z</time>
      </trkpt>
      <trkpt lat="44.384514335542917" lon="11.260399762541056">
        <ele>275</ele>
        <time>2004-05-09T07:02:56Z</time>
      </trkpt>
      <trkpt lat="44.384535709396005" lon="11.260442677885294">
        <ele>274</ele>
        <time>2004-05-09T07:02:54Z</time>
      </trkpt>
      <trkpt lat="44.384600082412362" lon="11.260807458311319">
        <ele>271</ele>
        <time>2004-05-09T07:02:41Z</time>
      </trkpt>
      <trkpt lat="44.384664539247751" lon="11.260979203507304">
        <ele>267</ele>
        <time>2004-05-09T07:02:31Z</time>
      </trkpt>
      <trkpt lat="44.384857574477792" lon="11.261150781065226">
        <ele>264</ele>
        <time>2004-05-09T07:02:13Z</time>
      </trkpt>
      <trkpt lat="44.38490048982203" lon="11.261236695572734">
        <ele>263</ele>
        <time>2004-05-09T07:02:08Z</time>
      </trkpt>
      <trkpt lat="44.384986404329538" lon="11.261429814621806">
        <ele>260</ele>
        <time>2004-05-09T07:01:55Z</time>
      </trkpt>
      <trkpt lat="44.38515798188746" lon="11.261429814621806">
        <ele>257</ele>
        <time>2004-05-09T07:01:41Z</time>
      </trkpt>
      <trkpt lat="44.385200897231698" lon="11.261429814621806">
        <ele>257</ele>
        <time>2004-05-09T07:01:38Z</time>
      </trkpt>
      <trkpt lat="44.385243896394968" lon="11.261451272293925">
        <ele>255</ele>
        <time>2004-05-09T07:01:35Z</time>
      </trkpt>
      <trkpt lat="44.385265270248055" lon="11.261451272293925">
        <ele>254</ele>
        <time>2004-05-09T07:01:27Z</time>
      </trkpt>
      <trkpt lat="44.385329727083445" lon="11.261472729966044">
        <ele>253</ele>
        <time>2004-05-09T07:01:10Z</time>
      </trkpt>
      <trkpt lat="44.385372558608651" lon="11.261494187638164">
        <ele>251</ele>
        <time>2004-05-09T07:00:55Z</time>
      </trkpt>
      <trkpt lat="44.385286811739206" lon="11.261601475998759">
        <ele>250</ele>
        <time>2004-05-09T07:00:39Z</time>
      </trkpt>
      <trkpt lat="44.385200897231698" lon="11.261644391342998">
        <ele>247</ele>
        <time>2004-05-09T07:00:33Z</time>
      </trkpt>
      <trkpt lat="44.385050693526864" lon="11.261901883408427">
        <ele>245</ele>
        <time>2004-05-09T07:00:15Z</time>
      </trkpt>
      <trkpt lat="44.384986404329538" lon="11.262245206162333">
        <ele>242</ele>
        <time>2004-05-09T06:59:55Z</time>
      </trkpt>
      <trkpt lat="44.385044574737549" lon="11.262359619140625">
        <ele>244</ele>
        <time>2004-05-09T09:18:24Z</time>
      </trkpt>
      <trkpt lat="44.385001659393311" lon="11.262574195861816">
        <ele>241</ele>
        <time>2004-05-09T09:18:27Z</time>
      </trkpt>
      <trkpt lat="44.384980201721191" lon="11.262660026550293">
        <ele>240</ele>
        <time>2004-05-09T09:18:29Z</time>
      </trkpt>
      <trkpt lat="44.385108863934875" lon="11.262788772583008">
        <ele>237</ele>
        <time>2004-05-09T09:18:40Z</time>
      </trkpt>
      <trkpt lat="44.385237693786621" lon="11.263325214385986">
        <ele>233</ele>
        <time>2004-05-09T09:18:46Z</time>
      </trkpt>
      <trkpt lat="44.385302066802979" lon="11.263561164960265">
        <ele>221</ele>
        <time>2004-05-09T09:19:02Z</time>
      </trkpt>
      <trkpt lat="44.385688304901123" lon="11.263153636828065">
        <ele>220</ele>
        <time>2004-05-09T09:19:06Z</time>
      </trkpt>
      <trkpt lat="44.38581713475287" lon="11.263110637664795">
        <ele>219</ele>
        <time>2004-05-09T09:19:08Z</time>
      </trkpt>
      <trkpt lat="44.38601016998291" lon="11.263110637664795">
        <ele>216</ele>
        <time>2004-05-09T09:19:11Z</time>
      </trkpt>
      <trkpt lat="44.386353492736816" lon="11.262874603271484">
        <ele>214</ele>
        <time>2004-05-09T09:19:17Z</time>
      </trkpt>
      <trkpt lat="44.386353492736816" lon="11.262831687927246">
        <ele>213</ele>
        <time>2004-05-09T09:19:20Z</time>
      </trkpt>
      <trkpt lat="44.386375034227967" lon="11.262745941057801">
        <ele>213</ele>
        <time>2004-05-09T09:19:26Z</time>
      </trkpt>
      <trkpt lat="44.38650369644165" lon="11.262660026550293">
        <ele>213</ele>
        <time>2004-05-09T09:19:31Z</time>
      </trkpt>
      <trkpt lat="44.386932766065001" lon="11.262466907501221">
        <ele>210</ele>
        <time>2004-05-09T09:19:42Z</time>
      </trkpt>
      <trkpt lat="44.387619495391846" lon="11.262381076812744">
        <ele>209</ele>
        <time>2004-05-09T09:19:59Z</time>
      </trkpt>
      <trkpt lat="44.387791240587831" lon="11.262617111206055">
        <ele>206</ele>
        <time>2004-05-09T09:20:03Z</time>
      </trkpt>
      <trkpt lat="44.388155937194824" lon="11.263325214385986">
        <ele>203</ele>
        <time>2004-05-09T09:20:12Z</time>
      </trkpt>
      <trkpt lat="44.388349140062928" lon="11.263625621795654">
        <ele>201</ele>
        <time>2004-05-09T09:20:16Z</time>
      </trkpt>
      <trkpt lat="44.388606464490294" lon="11.263625621795654">
        <ele>199</ele>
        <time>2004-05-09T09:20:20Z</time>
      </trkpt>
      <trkpt lat="44.388885498046875" lon="11.263282299041748">
        <ele>195</ele>
        <time>2004-05-09T09:20:26Z</time>
      </trkpt>
      <trkpt lat="44.388992786407471" lon="11.26323938369751">
        <ele>195</ele>
        <time>2004-05-09T09:20:28Z</time>
      </trkpt>
      <trkpt lat="44.38927173614502" lon="11.263196468353271">
        <ele>190</ele>
        <time>2004-05-09T09:20:33Z</time>
      </trkpt>
      <trkpt lat="44.38950777053833" lon="11.263067722320557">
        <ele>187</ele>
        <time>2004-05-09T09:20:40Z</time>
      </trkpt>
      <trkpt lat="44.389572059735656" lon="11.263003265485168">
        <ele>187</ele>
        <time>2004-05-09T09:20:42Z</time>
      </trkpt>
      <trkpt lat="44.389679431915283" lon="11.262917518615723">
        <ele>185</ele>
        <time>2004-05-09T09:20:45Z</time>
      </trkpt>
      <trkpt lat="44.38972226344049" lon="11.262853061780334">
        <ele>184</ele>
        <time>2004-05-09T09:20:46Z</time>
      </trkpt>
      <trkpt lat="44.389915466308594" lon="11.262810230255127">
        <ele>179</ele>
        <time>2004-05-09T09:20:51Z</time>
      </trkpt>
      <trkpt lat="44.390044212341309" lon="11.262938976287842">
        <ele>177</ele>
        <time>2004-05-09T09:20:54Z</time>
      </trkpt>
      <trkpt lat="44.390108585357666" lon="11.262938976287842">
        <ele>177</ele>
        <time>2004-05-09T09:20:56Z</time>
      </trkpt>
      <trkpt lat="44.390194416046143" lon="11.262745941057801">
        <ele>174</ele>
        <time>2004-05-09T09:21:00Z</time>
      </trkpt>
      <trkpt lat="44.390151500701904" lon="11.262574195861816">
        <ele>172</ele>
        <time>2004-05-09T09:21:03Z</time>
      </trkpt>
      <trkpt lat="44.389936923980713" lon="11.262166500091553">
        <ele>169</ele>
        <time>2004-05-09T09:21:10Z</time>
      </trkpt>
      <trkpt lat="44.389872634783387" lon="11.26203783787787">
        <ele>168</ele>
        <time>2004-05-09T09:21:12Z</time>
      </trkpt>
      <trkpt lat="44.389829635620117" lon="11.261694431304932">
        <ele>164</ele>
        <time>2004-05-09T09:21:16Z</time>
      </trkpt>
      <trkpt lat="44.389808177947998" lon="11.261608600616455">
        <ele>163</ele>
        <time>2004-05-09T09:21:17Z</time>
      </trkpt>
      <trkpt lat="44.389700889587402" lon="11.261308193206787">
        <ele>162</ele>
        <time>2004-05-09T09:21:20Z</time>
      </trkpt>
      <trkpt lat="44.389550685882568" lon="11.260943412780762">
        <ele>159</ele>
        <time>2004-05-09T09:21:24Z</time>
      </trkpt>
      <trkpt lat="44.389529228210449" lon="11.260643005371094">
        <ele>156</ele>
        <time>2004-05-09T09:21:27Z</time>
      </trkpt>
      <trkpt lat="44.38950777053833" lon="11.260342597961426">
        <ele>152</ele>
        <time>2004-05-09T09:21:30Z</time>
      </trkpt>
      <trkpt lat="44.389464939013124" lon="11.2599778175354">
        <ele>149</ele>
        <time>2004-05-09T09:21:33Z</time>
      </trkpt>
      <trkpt lat="44.389421939849854" lon="11.259505664929748">
        <ele>146</ele>
        <time>2004-05-09T09:21:37Z</time>
      </trkpt>
      <trkpt lat="44.389743804931641" lon="11.25873327255249">
        <ele>142</ele>
        <time>2004-05-09T09:21:40Z</time>
      </trkpt>
      <trkpt lat="44.389593601226807" lon="11.258475780487061">
        <ele>138</ele>
        <time>2004-05-09T09:21:43Z</time>
      </trkpt>
      <trkpt lat="44.389550685882568" lon="11.258411407470703">
        <ele>137</ele>
        <time>2004-05-09T09:21:44Z</time>
      </trkpt>
      <trkpt lat="44.389421939849854" lon="11.258153915405273">
        <ele>134</ele>
        <time>2004-05-09T09:21:48Z</time>
      </trkpt>
      <trkpt lat="44.389357566833496" lon="11.258025169372559">
        <ele>132</ele>
        <time>2004-05-09T09:21:50Z</time>
      </trkpt>
      <trkpt lat="44.389293193817139" lon="11.257896423339844">
        <ele>131</ele>
        <time>2004-05-09T09:21:52Z</time>
      </trkpt>
      <trkpt lat="44.38931473530829" lon="11.257724761962891">
        <ele>123</ele>
        <time>2004-05-09T09:23:09Z</time>
      </trkpt>
      <trkpt lat="44.389164363965392" lon="11.257338523864746">
        <ele>125</ele>
        <time>2004-05-09T09:23:27Z</time>
      </trkpt>
      <trkpt lat="44.389142990112305" lon="11.25727423466742">
        <ele>124</ele>
        <time>2004-05-09T09:23:43Z</time>
      </trkpt>
      <trkpt lat="44.389100074768066" lon="11.256952285766602">
        <ele>127</ele>
        <time>2004-05-09T09:24:01Z</time>
      </trkpt>
      <trkpt lat="44.389057159423828" lon="11.256651878356934">
        <ele>129</ele>
        <time>2004-05-09T09:24:07Z</time>
      </trkpt>
      <trkpt lat="44.388864040374756" lon="11.25598669052124">
        <ele>133</ele>
        <time>2004-05-09T09:24:20Z</time>
      </trkpt>
      <trkpt lat="44.388606464490294" lon="11.255514621734619">
        <ele>134</ele>
        <time>2004-05-09T09:24:40Z</time>
      </trkpt>
      <trkpt lat="44.38845626078546" lon="11.255106925964355">
        <ele>137</ele>
        <time>2004-05-09T09:24:58Z</time>
      </trkpt>
      <trkpt lat="44.388306140899658" lon="11.254742061719298">
        <ele>140</ele>
        <time>2004-05-09T09:25:13Z</time>
      </trkpt>
      <trkpt lat="44.388177394866943" lon="11.254270076751709">
        <ele>143</ele>
        <time>2004-05-09T09:25:30Z</time>
      </trkpt>
      <trkpt lat="44.388155937194824" lon="11.254098415374756">
        <ele>143</ele>
        <time>2004-05-09T09:25:37Z</time>
      </trkpt>
      <trkpt lat="44.38826322555542" lon="11.253712177276611">
        <ele>143</ele>
        <time>2004-05-09T09:25:51Z</time>
      </trkpt>
      <trkpt lat="44.388048565015197" lon="11.252875328063965">
        <ele>141</ele>
        <time>2004-05-09T09:26:09Z</time>
      </trkpt>
      <trkpt lat="44.387855529785156" lon="11.251931190490723">
        <ele>139</ele>
        <time>2004-05-09T09:26:20Z</time>
      </trkpt>
      <trkpt lat="44.387748241424561" lon="11.251373291015625">
        <ele>135</ele>
        <time>2004-05-09T09:26:25Z</time>
      </trkpt>
      <trkpt lat="44.387469291687012" lon="11.250450611114502">
        <ele>132</ele>
        <time>2004-05-09T09:26:36Z</time>
      </trkpt>
      <trkpt lat="44.387125968933105" lon="11.249763965606689">
        <ele>133</ele>
        <time>2004-05-09T09:26:52Z</time>
      </trkpt>
      <trkpt lat="44.386889934539795" lon="11.249098777770996">
        <ele>132</ele>
        <time>2004-05-09T09:27:10Z</time>
      </trkpt>
      <trkpt lat="44.386997222900391" lon="11.248626708984375">
        <ele>136</ele>
        <time>2004-05-09T09:27:24Z</time>
      </trkpt>
      <trkpt lat="44.387061595916748" lon="11.248219013214111">
        <ele>133</ele>
        <time>2004-05-09T09:27:36Z</time>
      </trkpt>
      <trkpt lat="44.387362003326416" lon="11.248111724853516">
        <ele>131</ele>
        <time>2004-05-09T09:27:46Z</time>
      </trkpt>
      <trkpt lat="44.387426376342773" lon="11.248111724853516">
        <ele>130</ele>
        <time>2004-05-09T09:27:49Z</time>
      </trkpt>
      <trkpt lat="44.387469291687012" lon="11.248197639361024">
        <ele>126</ele>
        <time>2004-05-09T09:27:53Z</time>
      </trkpt>
      <trkpt lat="44.387469291687012" lon="11.248219013214111">
        <ele>127</ele>
        <time>2004-05-09T09:27:54Z</time>
      </trkpt>
      <trkpt lat="44.387469291687012" lon="11.24826192855835">
        <ele>127</ele>
        <time>2004-05-09T09:27:59Z</time>
      </trkpt>
      <trkpt lat="44.387748241424561" lon="11.248219013214111">
        <ele>126</ele>
        <time>2004-05-09T09:28:09Z</time>
      </trkpt>
      <trkpt lat="44.38776969909668" lon="11.248197639361024">
        <ele>126</ele>
        <time>2004-05-09T09:28:10Z</time>
      </trkpt>
      <trkpt lat="44.387748241424561" lon="11.247661113739014">
        <ele>125</ele>
        <time>2004-05-09T09:28:20Z</time>
      </trkpt>
      <trkpt lat="44.387941360473633" lon="11.247382164001465">
        <ele>125</ele>
        <time>2004-05-09T09:28:28Z</time>
      </trkpt>
      <trkpt lat="44.38800573348999" lon="11.247339164838195">
        <ele>125</ele>
        <time>2004-05-09T09:28:30Z</time>
      </trkpt>
      <trkpt lat="44.388177394866943" lon="11.247274875640869">
        <ele>125</ele>
        <time>2004-05-09T09:28:34Z</time>
      </trkpt>
      <trkpt lat="44.388413429260254" lon="11.247167587280273">
        <ele>125</ele>
        <time>2004-05-09T09:28:41Z</time>
      </trkpt>
      <trkpt lat="44.388649463653564" lon="11.247060298919678">
        <ele>124</ele>
        <time>2004-05-09T09:28:47Z</time>
      </trkpt>
      <trkpt lat="44.389529228210449" lon="11.246631061658263">
        <ele>124</ele>
        <time>2004-05-09T09:29:07Z</time>
      </trkpt>
      <trkpt lat="44.390344619750977" lon="11.24624490737915">
        <ele>124</ele>
        <time>2004-05-09T09:29:27Z</time>
      </trkpt>
      <trkpt lat="44.391117095947266" lon="11.24600887298584">
        <ele>124</ele>
        <time>2004-05-09T09:29:43Z</time>
      </trkpt>
      <trkpt lat="44.391460418701172" lon="11.245966041460633">
        <ele>124</ele>
        <time>2004-05-09T09:29:52Z</time>
      </trkpt>
      <trkpt lat="44.392426013946533" lon="11.246438026428223">
        <ele>125</ele>
        <time>2004-05-09T09:30:09Z</time>
      </trkpt>
      <trkpt lat="44.393284320831299" lon="11.246824264526367">
        <ele>126</ele>
        <time>2004-05-09T09:30:27Z</time>
      </trkpt>
      <trkpt lat="44.393327236175537" lon="11.246716976165771">
        <ele>126</ele>
        <time>1989-12-31T00:00:00Z</time>
      </trkpt>
      <trkpt lat="44.393455479294062" lon="11.246417993679643">
        <ele>126</ele>
        <time>1989-12-31T00:00:00Z</time>
      </trkpt>
    </trkseg>
  </trk>

</gpx>
